<?xml version="1.0" encoding="UTF-8"?>
<gpx version="1.0" creator="Trackator" xmlns:xsi="http://www.w3.org/2001/XMLSchema-instance" xmlns="http://www.topografix.com/GPX/1/0" xmlns:topografix="http://www.topografix.com/GPX/Private/TopoGrafix/0/1" xsi:schemaLocation="http://www.topografix.com/GPX/1/0 http://www.topografix.com/GPX/1/0/gpx.xsd http://www.topografix.com/GPX/Private/TopoGrafix/0/1 http://www.topografix.com/GPX/Private/TopoGrafix/0/1/topografix.xsd">
<metadata>
<link href="http://www.trackator.com">
<text>Trackator</text>
</link>
</metadata>
<time>2015-05-19T12:40:31Z</time>
<trk>
<name>Track: </name>
<desc>Cycling</desc>
<trkseg>
<trkpt lat="53.3479709" lon="18.4460539">
<ele>105</ele>
<time>2015-05-19T12:40:31Z</time>
</trkpt>
<trkpt lat="53.3479862" lon="18.4460605">
<ele>102</ele>
<time>2015-05-19T12:40:33Z</time>
</trkpt>
<trkpt lat="53.3479972" lon="18.4460417">
<ele>102</ele>
<time>2015-05-19T12:40:35Z</time>
</trkpt>
<trkpt lat="53.3480216" lon="18.4460375">
<ele>102</ele>
<time>2015-05-19T12:40:37Z</time>
</trkpt>
<trkpt lat="53.3480397" lon="18.4460268">
<ele>102</ele>
<time>2015-05-19T12:40:39Z</time>
</trkpt>
<trkpt lat="53.3480467" lon="18.4460349">
<ele>102</ele>
<time>2015-05-19T12:40:41Z</time>
</trkpt>
<trkpt lat="53.3480538" lon="18.4460242">
<ele>102</ele>
<time>2015-05-19T12:40:43Z</time>
</trkpt>
<trkpt lat="53.3480469" lon="18.4460465">
<ele>102</ele>
<time>2015-05-19T12:40:45Z</time>
</trkpt>
<trkpt lat="53.3480356" lon="18.4460731">
<ele>102</ele>
<time>2015-05-19T12:40:47Z</time>
</trkpt>
<trkpt lat="53.3480306" lon="18.4460926">
<ele>102</ele>
<time>2015-05-19T12:40:49Z</time>
</trkpt>
<trkpt lat="53.3480379" lon="18.4461218">
<ele>102</ele>
<time>2015-05-19T12:40:51Z</time>
</trkpt>
<trkpt lat="53.3480513" lon="18.4461813">
<ele>102</ele>
<time>2015-05-19T12:40:53Z</time>
</trkpt>
<trkpt lat="53.3480623" lon="18.4462585">
<ele>102</ele>
<time>2015-05-19T12:40:55Z</time>
</trkpt>
<trkpt lat="53.3482848" lon="18.4464549">
<ele>102</ele>
<time>2015-05-19T12:40:57Z</time>
</trkpt>
<trkpt lat="53.3482579" lon="18.4463354">
<ele>103</ele>
<time>2015-05-19T12:40:59Z</time>
</trkpt>
<trkpt lat="53.3482245" lon="18.4462452">
<ele>105</ele>
<time>2015-05-19T12:41:01Z</time>
</trkpt>
<trkpt lat="53.3482373" lon="18.4462431">
<ele>106</ele>
<time>2015-05-19T12:41:03Z</time>
</trkpt>
<trkpt lat="53.3482648" lon="18.4462376">
<ele>106</ele>
<time>2015-05-19T12:41:05Z</time>
</trkpt>
<trkpt lat="53.3482696" lon="18.4462340">
<ele>103</ele>
<time>2015-05-19T12:41:07Z</time>
</trkpt>
<trkpt lat="53.3482922" lon="18.4462703">
<ele>104</ele>
<time>2015-05-19T12:41:09Z</time>
</trkpt>
<trkpt lat="53.3482650" lon="18.4462862">
<ele>105</ele>
<time>2015-05-19T12:41:11Z</time>
</trkpt>
<trkpt lat="53.3482513" lon="18.4462905">
<ele>104</ele>
<time>2015-05-19T12:41:13Z</time>
</trkpt>
<trkpt lat="53.3482738" lon="18.4462815">
<ele>103</ele>
<time>2015-05-19T12:41:15Z</time>
</trkpt>
<trkpt lat="53.3483243" lon="18.4462773">
<ele>104</ele>
<time>2015-05-19T12:41:17Z</time>
</trkpt>
<trkpt lat="53.3483937" lon="18.4461907">
<ele>82</ele>
<time>2015-05-19T12:42:24Z</time>
</trkpt>
<trkpt lat="53.3483604" lon="18.4461644">
<ele>93</ele>
<time>2015-05-19T12:42:27Z</time>
</trkpt>
<trkpt lat="53.3483648" lon="18.4461137">
<ele>92</ele>
<time>2015-05-19T12:42:29Z</time>
</trkpt>
<trkpt lat="53.3483721" lon="18.4460608">
<ele>92</ele>
<time>2015-05-19T12:42:31Z</time>
</trkpt>
<trkpt lat="53.3483800" lon="18.4460058">
<ele>92</ele>
<time>2015-05-19T12:42:33Z</time>
</trkpt>
<trkpt lat="53.3483825" lon="18.4459481">
<ele>90</ele>
<time>2015-05-19T12:42:35Z</time>
</trkpt>
<trkpt lat="53.3483727" lon="18.4458882">
<ele>91</ele>
<time>2015-05-19T12:42:37Z</time>
</trkpt>
<trkpt lat="53.3483583" lon="18.4458281">
<ele>89</ele>
<time>2015-05-19T12:42:39Z</time>
</trkpt>
<trkpt lat="53.3483444" lon="18.4457657">
<ele>86</ele>
<time>2015-05-19T12:42:41Z</time>
</trkpt>
<trkpt lat="53.3483329" lon="18.4456998">
<ele>85</ele>
<time>2015-05-19T12:42:43Z</time>
</trkpt>
<trkpt lat="53.3483258" lon="18.4456282">
<ele>88</ele>
<time>2015-05-19T12:42:45Z</time>
</trkpt>
<trkpt lat="53.3483284" lon="18.4455639">
<ele>88</ele>
<time>2015-05-19T12:42:47Z</time>
</trkpt>
<trkpt lat="53.3483408" lon="18.4455158">
<ele>89</ele>
<time>2015-05-19T12:42:49Z</time>
</trkpt>
<trkpt lat="53.3483496" lon="18.4454654">
<ele>90</ele>
<time>2015-05-19T12:42:51Z</time>
</trkpt>
<trkpt lat="53.3483564" lon="18.4454229">
<ele>91</ele>
<time>2015-05-19T12:42:53Z</time>
</trkpt>
<trkpt lat="53.3483590" lon="18.4453758">
<ele>92</ele>
<time>2015-05-19T12:42:55Z</time>
</trkpt>
<trkpt lat="53.3483555" lon="18.4453243">
<ele>92</ele>
<time>2015-05-19T12:42:57Z</time>
</trkpt>
<trkpt lat="53.3483551" lon="18.4452746">
<ele>93</ele>
<time>2015-05-19T12:42:59Z</time>
</trkpt>
<trkpt lat="53.3483574" lon="18.4452230">
<ele>93</ele>
<time>2015-05-19T12:43:01Z</time>
</trkpt>
<trkpt lat="53.3483588" lon="18.4451703">
<ele>93</ele>
<time>2015-05-19T12:43:03Z</time>
</trkpt>
<trkpt lat="53.3483648" lon="18.4451194">
<ele>94</ele>
<time>2015-05-19T12:43:05Z</time>
</trkpt>
<trkpt lat="53.3483688" lon="18.4450677">
<ele>94</ele>
<time>2015-05-19T12:43:07Z</time>
</trkpt>
<trkpt lat="53.3483700" lon="18.4450150">
<ele>95</ele>
<time>2015-05-19T12:43:09Z</time>
</trkpt>
<trkpt lat="53.3483738" lon="18.4449617">
<ele>95</ele>
<time>2015-05-19T12:43:11Z</time>
</trkpt>
<trkpt lat="53.3483626" lon="18.4449091">
<ele>95</ele>
<time>2015-05-19T12:43:13Z</time>
</trkpt>
<trkpt lat="53.3483397" lon="18.4448654">
<ele>94</ele>
<time>2015-05-19T12:43:15Z</time>
</trkpt>
<trkpt lat="53.3483125" lon="18.4448240">
<ele>94</ele>
<time>2015-05-19T12:43:17Z</time>
</trkpt>
<trkpt lat="53.3482764" lon="18.4448140">
<ele>94</ele>
<time>2015-05-19T12:43:19Z</time>
</trkpt>
<trkpt lat="53.3482394" lon="18.4448080">
<ele>94</ele>
<time>2015-05-19T12:43:21Z</time>
</trkpt>
<trkpt lat="53.3482043" lon="18.4447925">
<ele>97</ele>
<time>2015-05-19T12:43:23Z</time>
</trkpt>
<trkpt lat="53.3481720" lon="18.4447680">
<ele>97</ele>
<time>2015-05-19T12:43:25Z</time>
</trkpt>
<trkpt lat="53.3481510" lon="18.4447289">
<ele>96</ele>
<time>2015-05-19T12:43:27Z</time>
</trkpt>
<trkpt lat="53.3481265" lon="18.4446902">
<ele>96</ele>
<time>2015-05-19T12:43:29Z</time>
</trkpt>
<trkpt lat="53.3480938" lon="18.4446428">
<ele>96</ele>
<time>2015-05-19T12:43:31Z</time>
</trkpt>
<trkpt lat="53.3480791" lon="18.4445997">
<ele>95</ele>
<time>2015-05-19T12:43:33Z</time>
</trkpt>
<trkpt lat="53.3480871" lon="18.4445526">
<ele>95</ele>
<time>2015-05-19T12:43:35Z</time>
</trkpt>
<trkpt lat="53.3480981" lon="18.4444991">
<ele>98</ele>
<time>2015-05-19T12:43:37Z</time>
</trkpt>
<trkpt lat="53.3480814" lon="18.4444562">
<ele>96</ele>
<time>2015-05-19T12:43:39Z</time>
</trkpt>
<trkpt lat="53.3480535" lon="18.4444236">
<ele>98</ele>
<time>2015-05-19T12:43:41Z</time>
</trkpt>
<trkpt lat="53.3480211" lon="18.4443962">
<ele>98</ele>
<time>2015-05-19T12:43:43Z</time>
</trkpt>
<trkpt lat="53.3479902" lon="18.4443746">
<ele>99</ele>
<time>2015-05-19T12:43:45Z</time>
</trkpt>
<trkpt lat="53.3479614" lon="18.4443489">
<ele>101</ele>
<time>2015-05-19T12:43:47Z</time>
</trkpt>
<trkpt lat="53.3479296" lon="18.4443249">
<ele>101</ele>
<time>2015-05-19T12:43:49Z</time>
</trkpt>
<trkpt lat="53.3478969" lon="18.4443039">
<ele>99</ele>
<time>2015-05-19T12:43:51Z</time>
</trkpt>
<trkpt lat="53.3478692" lon="18.4442758">
<ele>98</ele>
<time>2015-05-19T12:43:53Z</time>
</trkpt>
<trkpt lat="53.3478518" lon="18.4442248">
<ele>97</ele>
<time>2015-05-19T12:43:55Z</time>
</trkpt>
<trkpt lat="53.3478634" lon="18.4441639">
<ele>99</ele>
<time>2015-05-19T12:43:57Z</time>
</trkpt>
<trkpt lat="53.3478961" lon="18.4440978">
<ele>99</ele>
<time>2015-05-19T12:43:59Z</time>
</trkpt>
<trkpt lat="53.3479238" lon="18.4440335">
<ele>100</ele>
<time>2015-05-19T12:44:01Z</time>
</trkpt>
<trkpt lat="53.3479495" lon="18.4439799">
<ele>99</ele>
<time>2015-05-19T12:44:03Z</time>
</trkpt>
<trkpt lat="53.3479828" lon="18.4439383">
<ele>98</ele>
<time>2015-05-19T12:44:05Z</time>
</trkpt>
<trkpt lat="53.3480004" lon="18.4438879">
<ele>97</ele>
<time>2015-05-19T12:44:07Z</time>
</trkpt>
<trkpt lat="53.3480121" lon="18.4438460">
<ele>96</ele>
<time>2015-05-19T12:44:09Z</time>
</trkpt>
<trkpt lat="53.3480366" lon="18.4437536">
<ele>95</ele>
<time>2015-05-19T12:44:13Z</time>
</trkpt>
<trkpt lat="53.3480492" lon="18.4437098">
<ele>94</ele>
<time>2015-05-19T12:44:15Z</time>
</trkpt>
<trkpt lat="53.3480612" lon="18.4436648">
<ele>94</ele>
<time>2015-05-19T12:44:17Z</time>
</trkpt>
<trkpt lat="53.3480776" lon="18.4436216">
<ele>92</ele>
<time>2015-05-19T12:44:19Z</time>
</trkpt>
<trkpt lat="53.3480902" lon="18.4435717">
<ele>92</ele>
<time>2015-05-19T12:44:21Z</time>
</trkpt>
<trkpt lat="53.3481050" lon="18.4435224">
<ele>92</ele>
<time>2015-05-19T12:44:23Z</time>
</trkpt>
<trkpt lat="53.3481228" lon="18.4434743">
<ele>93</ele>
<time>2015-05-19T12:44:25Z</time>
</trkpt>
<trkpt lat="53.3481414" lon="18.4434240">
<ele>94</ele>
<time>2015-05-19T12:44:27Z</time>
</trkpt>
<trkpt lat="53.3481597" lon="18.4433751">
<ele>95</ele>
<time>2015-05-19T12:44:29Z</time>
</trkpt>
<trkpt lat="53.3481746" lon="18.4433241">
<ele>94</ele>
<time>2015-05-19T12:44:31Z</time>
</trkpt>
<trkpt lat="53.3481825" lon="18.4432690">
<ele>96</ele>
<time>2015-05-19T12:44:33Z</time>
</trkpt>
<trkpt lat="53.3481876" lon="18.4432170">
<ele>97</ele>
<time>2015-05-19T12:44:35Z</time>
</trkpt>
<trkpt lat="53.3481875" lon="18.4431624">
<ele>97</ele>
<time>2015-05-19T12:44:37Z</time>
</trkpt>
<trkpt lat="53.3481869" lon="18.4431139">
<ele>97</ele>
<time>2015-05-19T12:44:39Z</time>
</trkpt>
<trkpt lat="53.3481857" lon="18.4430772">
<ele>98</ele>
<time>2015-05-19T12:44:41Z</time>
</trkpt>
<trkpt lat="53.3481806" lon="18.4430328">
<ele>99</ele>
<time>2015-05-19T12:44:43Z</time>
</trkpt>
<trkpt lat="53.3481730" lon="18.4429872">
<ele>98</ele>
<time>2015-05-19T12:44:45Z</time>
</trkpt>
<trkpt lat="53.3481726" lon="18.4429405">
<ele>97</ele>
<time>2015-05-19T12:44:47Z</time>
</trkpt>
<trkpt lat="53.3481718" lon="18.4428897">
<ele>96</ele>
<time>2015-05-19T12:44:49Z</time>
</trkpt>
<trkpt lat="53.3481681" lon="18.4428391">
<ele>95</ele>
<time>2015-05-19T12:44:51Z</time>
</trkpt>
<trkpt lat="53.3481588" lon="18.4427903">
<ele>94</ele>
<time>2015-05-19T12:44:53Z</time>
</trkpt>
<trkpt lat="53.3481507" lon="18.4427401">
<ele>93</ele>
<time>2015-05-19T12:44:55Z</time>
</trkpt>
<trkpt lat="53.3481452" lon="18.4426887">
<ele>94</ele>
<time>2015-05-19T12:44:57Z</time>
</trkpt>
<trkpt lat="53.3481401" lon="18.4426363">
<ele>94</ele>
<time>2015-05-19T12:44:59Z</time>
</trkpt>
<trkpt lat="53.3481322" lon="18.4425793">
<ele>94</ele>
<time>2015-05-19T12:45:01Z</time>
</trkpt>
<trkpt lat="53.3481268" lon="18.4425182">
<ele>95</ele>
<time>2015-05-19T12:45:03Z</time>
</trkpt>
<trkpt lat="53.3481325" lon="18.4424611">
<ele>95</ele>
<time>2015-05-19T12:45:05Z</time>
</trkpt>
<trkpt lat="53.3481452" lon="18.4424098">
<ele>95</ele>
<time>2015-05-19T12:45:07Z</time>
</trkpt>
<trkpt lat="53.3481627" lon="18.4423595">
<ele>97</ele>
<time>2015-05-19T12:45:09Z</time>
</trkpt>
<trkpt lat="53.3481755" lon="18.4423000">
<ele>97</ele>
<time>2015-05-19T12:45:11Z</time>
</trkpt>
<trkpt lat="53.3481748" lon="18.4422400">
<ele>97</ele>
<time>2015-05-19T12:45:13Z</time>
</trkpt>
<trkpt lat="53.3481695" lon="18.4421863">
<ele>96</ele>
<time>2015-05-19T12:45:15Z</time>
</trkpt>
<trkpt lat="53.3481677" lon="18.4421303">
<ele>96</ele>
<time>2015-05-19T12:45:17Z</time>
</trkpt>
<trkpt lat="53.3481722" lon="18.4420763">
<ele>95</ele>
<time>2015-05-19T12:45:19Z</time>
</trkpt>
<trkpt lat="53.3481737" lon="18.4420254">
<ele>93</ele>
<time>2015-05-19T12:45:21Z</time>
</trkpt>
<trkpt lat="53.3481728" lon="18.4419764">
<ele>92</ele>
<time>2015-05-19T12:45:23Z</time>
</trkpt>
<trkpt lat="53.3481841" lon="18.4419327">
<ele>92</ele>
<time>2015-05-19T12:45:25Z</time>
</trkpt>
<trkpt lat="53.3482069" lon="18.4418922">
<ele>93</ele>
<time>2015-05-19T12:45:27Z</time>
</trkpt>
<trkpt lat="53.3482296" lon="18.4418338">
<ele>94</ele>
<time>2015-05-19T12:45:29Z</time>
</trkpt>
<trkpt lat="53.3482467" lon="18.4417781">
<ele>95</ele>
<time>2015-05-19T12:45:31Z</time>
</trkpt>
<trkpt lat="53.3482677" lon="18.4417228">
<ele>94</ele>
<time>2015-05-19T12:45:33Z</time>
</trkpt>
<trkpt lat="53.3482880" lon="18.4416692">
<ele>94</ele>
<time>2015-05-19T12:45:35Z</time>
</trkpt>
<trkpt lat="53.3483055" lon="18.4416095">
<ele>93</ele>
<time>2015-05-19T12:45:37Z</time>
</trkpt>
<trkpt lat="53.3483262" lon="18.4415585">
<ele>95</ele>
<time>2015-05-19T12:45:39Z</time>
</trkpt>
<trkpt lat="53.3483445" lon="18.4415134">
<ele>94</ele>
<time>2015-05-19T12:45:41Z</time>
</trkpt>
<trkpt lat="53.3483664" lon="18.4414682">
<ele>94</ele>
<time>2015-05-19T12:45:43Z</time>
</trkpt>
<trkpt lat="53.3484076" lon="18.4413757">
<ele>93</ele>
<time>2015-05-19T12:45:47Z</time>
</trkpt>
<trkpt lat="53.3484250" lon="18.4413399">
<ele>93</ele>
<time>2015-05-19T12:45:49Z</time>
</trkpt>
<trkpt lat="53.3484391" lon="18.4412907">
<ele>93</ele>
<time>2015-05-19T12:45:51Z</time>
</trkpt>
<trkpt lat="53.3484554" lon="18.4412377">
<ele>90</ele>
<time>2015-05-19T12:45:53Z</time>
</trkpt>
<trkpt lat="53.3484707" lon="18.4411910">
<ele>89</ele>
<time>2015-05-19T12:45:55Z</time>
</trkpt>
<trkpt lat="53.3484807" lon="18.4411325">
<ele>88</ele>
<time>2015-05-19T12:45:57Z</time>
</trkpt>
<trkpt lat="53.3484887" lon="18.4410663">
<ele>89</ele>
<time>2015-05-19T12:45:59Z</time>
</trkpt>
<trkpt lat="53.3484936" lon="18.4409998">
<ele>89</ele>
<time>2015-05-19T12:46:01Z</time>
</trkpt>
<trkpt lat="53.3485117" lon="18.4408843">
<ele>92</ele>
<time>2015-05-19T12:46:05Z</time>
</trkpt>
<trkpt lat="53.3485261" lon="18.4408326">
<ele>94</ele>
<time>2015-05-19T12:46:07Z</time>
</trkpt>
<trkpt lat="53.3485412" lon="18.4407793">
<ele>93</ele>
<time>2015-05-19T12:46:09Z</time>
</trkpt>
<trkpt lat="53.3485557" lon="18.4407247">
<ele>94</ele>
<time>2015-05-19T12:46:11Z</time>
</trkpt>
<trkpt lat="53.3485694" lon="18.4406689">
<ele>94</ele>
<time>2015-05-19T12:46:13Z</time>
</trkpt>
<trkpt lat="53.3485805" lon="18.4406135">
<ele>95</ele>
<time>2015-05-19T12:46:15Z</time>
</trkpt>
<trkpt lat="53.348589" lon="18.4405568">
<ele>94</ele>
<time>2015-05-19T12:46:17Z</time>
</trkpt>
<trkpt lat="53.3486002" lon="18.4404959">
<ele>94</ele>
<time>2015-05-19T12:46:19Z</time>
</trkpt>
<trkpt lat="53.3486155" lon="18.4404365">
<ele>94</ele>
<time>2015-05-19T12:46:21Z</time>
</trkpt>
<trkpt lat="53.3486310" lon="18.4403810">
<ele>94</ele>
<time>2015-05-19T12:46:23Z</time>
</trkpt>
<trkpt lat="53.3486468" lon="18.4403274">
<ele>95</ele>
<time>2015-05-19T12:46:25Z</time>
</trkpt>
<trkpt lat="53.3486624" lon="18.4402773">
<ele>94</ele>
<time>2015-05-19T12:46:27Z</time>
</trkpt>
<trkpt lat="53.3486781" lon="18.4402277">
<ele>98</ele>
<time>2015-05-19T12:46:29Z</time>
</trkpt>
<trkpt lat="53.3486999" lon="18.4401822">
<ele>100</ele>
<time>2015-05-19T12:46:31Z</time>
</trkpt>
<trkpt lat="53.3487199" lon="18.4401358">
<ele>100</ele>
<time>2015-05-19T12:46:33Z</time>
</trkpt>
<trkpt lat="53.3487378" lon="18.4400834">
<ele>103</ele>
<time>2015-05-19T12:46:35Z</time>
</trkpt>
<trkpt lat="53.3487592" lon="18.4400338">
<ele>105</ele>
<time>2015-05-19T12:46:37Z</time>
</trkpt>
<trkpt lat="53.3487796" lon="18.4399792">
<ele>105</ele>
<time>2015-05-19T12:46:39Z</time>
</trkpt>
<trkpt lat="53.3488018" lon="18.4399295">
<ele>104</ele>
<time>2015-05-19T12:46:41Z</time>
</trkpt>
<trkpt lat="53.3488183" lon="18.4398762">
<ele>104</ele>
<time>2015-05-19T12:46:43Z</time>
</trkpt>
<trkpt lat="53.3488331" lon="18.4398290">
<ele>106</ele>
<time>2015-05-19T12:46:45Z</time>
</trkpt>
<trkpt lat="53.3488490" lon="18.4397843">
<ele>105</ele>
<time>2015-05-19T12:46:47Z</time>
</trkpt>
<trkpt lat="53.3488636" lon="18.4397387">
<ele>107</ele>
<time>2015-05-19T12:46:49Z</time>
</trkpt>
<trkpt lat="53.3488754" lon="18.4396904">
<ele>105</ele>
<time>2015-05-19T12:46:51Z</time>
</trkpt>
<trkpt lat="53.3488873" lon="18.4394820">
<ele>105</ele>
<time>2015-05-19T12:46:59Z</time>
</trkpt>
<trkpt lat="53.3488835" lon="18.4394396">
<ele>105</ele>
<time>2015-05-19T12:47:01Z</time>
</trkpt>
<trkpt lat="53.3488696" lon="18.4394266">
<ele>107</ele>
<time>2015-05-19T12:47:05Z</time>
</trkpt>
<trkpt lat="53.3488451" lon="18.4394113">
<ele>106</ele>
<time>2015-05-19T12:47:07Z</time>
</trkpt>
<trkpt lat="53.3488232" lon="18.4393892">
<ele>107</ele>
<time>2015-05-19T12:47:09Z</time>
</trkpt>
<trkpt lat="53.3488043" lon="18.4393463">
<ele>107</ele>
<time>2015-05-19T12:47:11Z</time>
</trkpt>
<trkpt lat="53.3487980" lon="18.4392822">
<ele>105</ele>
<time>2015-05-19T12:47:13Z</time>
</trkpt>
<trkpt lat="53.3487987" lon="18.4392349">
<ele>105</ele>
<time>2015-05-19T12:47:15Z</time>
</trkpt>
<trkpt lat="53.3488038" lon="18.4391840">
<ele>106</ele>
<time>2015-05-19T12:47:17Z</time>
</trkpt>
<trkpt lat="53.3488127" lon="18.4391257">
<ele>107</ele>
<time>2015-05-19T12:47:19Z</time>
</trkpt>
<trkpt lat="53.3488216" lon="18.4390664">
<ele>107</ele>
<time>2015-05-19T12:47:21Z</time>
</trkpt>
<trkpt lat="53.3488328" lon="18.4390003">
<ele>108</ele>
<time>2015-05-19T12:47:23Z</time>
</trkpt>
<trkpt lat="53.3488496" lon="18.4389387">
<ele>110</ele>
<time>2015-05-19T12:47:25Z</time>
</trkpt>
<trkpt lat="53.3488666" lon="18.4388782">
<ele>111</ele>
<time>2015-05-19T12:47:27Z</time>
</trkpt>
<trkpt lat="53.3488754" lon="18.4388214">
<ele>110</ele>
<time>2015-05-19T12:47:29Z</time>
</trkpt>
<trkpt lat="53.3488798" lon="18.4387633">
<ele>108</ele>
<time>2015-05-19T12:47:31Z</time>
</trkpt>
<trkpt lat="53.3488872" lon="18.4387074">
<ele>109</ele>
<time>2015-05-19T12:47:33Z</time>
</trkpt>
<trkpt lat="53.3488993" lon="18.4386522">
<ele>107</ele>
<time>2015-05-19T12:47:35Z</time>
</trkpt>
<trkpt lat="53.3489163" lon="18.4386071">
<ele>107</ele>
<time>2015-05-19T12:47:37Z</time>
</trkpt>
<trkpt lat="53.3489089" lon="18.4385639">
<ele>106</ele>
<time>2015-05-19T12:47:39Z</time>
</trkpt>
<trkpt lat="53.3488996" lon="18.4385531">
<ele>107</ele>
<time>2015-05-19T12:47:41Z</time>
</trkpt>
<trkpt lat="53.3488974" lon="18.4385516">
<ele>107</ele>
<time>2015-05-19T12:47:43Z</time>
</trkpt>
<trkpt lat="53.3488963" lon="18.4385477">
<ele>107</ele>
<time>2015-05-19T12:47:45Z</time>
</trkpt>
<trkpt lat="53.3488967" lon="18.4385407">
<ele>107</ele>
<time>2015-05-19T12:47:47Z</time>
</trkpt>
<trkpt lat="53.3488945" lon="18.4385317">
<ele>107</ele>
<time>2015-05-19T12:47:49Z</time>
</trkpt>
<trkpt lat="53.3488988" lon="18.4384972">
<ele>107</ele>
<time>2015-05-19T12:47:51Z</time>
</trkpt>
<trkpt lat="53.3488673" lon="18.4384407">
<ele>107</ele>
<time>2015-05-19T12:47:53Z</time>
</trkpt>
<trkpt lat="53.3488541" lon="18.4383886">
<ele>106</ele>
<time>2015-05-19T12:47:55Z</time>
</trkpt>
<trkpt lat="53.3488477" lon="18.4383057">
<ele>106</ele>
<time>2015-05-19T12:47:57Z</time>
</trkpt>
<trkpt lat="53.3488076" lon="18.4383287">
<ele>106</ele>
<time>2015-05-19T12:47:59Z</time>
</trkpt>
<trkpt lat="53.3487789" lon="18.4384117">
<ele>106</ele>
<time>2015-05-19T12:48:01Z</time>
</trkpt>
<trkpt lat="53.3487800" lon="18.4384383">
<ele>94</ele>
<time>2015-05-19T12:48:03Z</time>
</trkpt>
<trkpt lat="53.3488075" lon="18.4384100">
<ele>97</ele>
<time>2015-05-19T12:48:05Z</time>
</trkpt>
<trkpt lat="53.3488411" lon="18.4383734">
<ele>99</ele>
<time>2015-05-19T12:48:07Z</time>
</trkpt>
<trkpt lat="53.3488820" lon="18.4383399">
<ele>100</ele>
<time>2015-05-19T12:48:09Z</time>
</trkpt>
<trkpt lat="53.3488783" lon="18.4383280">
<ele>102</ele>
<time>2015-05-19T12:48:11Z</time>
</trkpt>
<trkpt lat="53.3488658" lon="18.4383328">
<ele>102</ele>
<time>2015-05-19T12:48:13Z</time>
</trkpt>
<trkpt lat="53.3488636" lon="18.4383200">
<ele>103</ele>
<time>2015-05-19T12:48:15Z</time>
</trkpt>
<trkpt lat="53.3490486" lon="18.4378829">
<ele>109</ele>
<time>2015-05-19T12:48:17Z</time>
</trkpt>
<trkpt lat="53.3490390" lon="18.4379055">
<ele>109</ele>
<time>2015-05-19T12:48:19Z</time>
</trkpt>
<trkpt lat="53.3490273" lon="18.4379518">
<ele>109</ele>
<time>2015-05-19T12:48:21Z</time>
</trkpt>
<trkpt lat="53.3490159" lon="18.4379937">
<ele>109</ele>
<time>2015-05-19T12:48:23Z</time>
</trkpt>
<trkpt lat="53.3490176" lon="18.4380216">
<ele>114</ele>
<time>2015-05-19T12:48:25Z</time>
</trkpt>
<trkpt lat="53.3490161" lon="18.4380662">
<ele>115</ele>
<time>2015-05-19T12:48:27Z</time>
</trkpt>
<trkpt lat="53.3490091" lon="18.4381255">
<ele>117</ele>
<time>2015-05-19T12:48:29Z</time>
</trkpt>
<trkpt lat="53.3490056" lon="18.4381829">
<ele>118</ele>
<time>2015-05-19T12:48:31Z</time>
</trkpt>
<trkpt lat="53.3489878" lon="18.4382681">
<ele>118</ele>
<time>2015-05-19T12:48:33Z</time>
</trkpt>
<trkpt lat="53.3489650" lon="18.4383577">
<ele>118</ele>
<time>2015-05-19T12:48:35Z</time>
</trkpt>
<trkpt lat="53.3489527" lon="18.4384325">
<ele>119</ele>
<time>2015-05-19T12:48:37Z</time>
</trkpt>
<trkpt lat="53.3489418" lon="18.4385058">
<ele>118</ele>
<time>2015-05-19T12:48:39Z</time>
</trkpt>
<trkpt lat="53.3489309" lon="18.4385852">
<ele>118</ele>
<time>2015-05-19T12:48:41Z</time>
</trkpt>
<trkpt lat="53.3489288" lon="18.4386421">
<ele>118</ele>
<time>2015-05-19T12:48:43Z</time>
</trkpt>
<trkpt lat="53.3488936" lon="18.4387299">
<ele>120</ele>
<time>2015-05-19T12:48:45Z</time>
</trkpt>
<trkpt lat="53.3488441" lon="18.4387081">
<ele>120</ele>
<time>2015-05-19T12:48:47Z</time>
</trkpt>
<trkpt lat="53.3488178" lon="18.4386415">
<ele>118</ele>
<time>2015-05-19T12:48:49Z</time>
</trkpt>
<trkpt lat="53.3487947" lon="18.4386066">
<ele>119</ele>
<time>2015-05-19T12:48:51Z</time>
</trkpt>
<trkpt lat="53.3487856" lon="18.4385890">
<ele>119</ele>
<time>2015-05-19T12:48:53Z</time>
</trkpt>
<trkpt lat="53.3487785" lon="18.4385812">
<ele>120</ele>
<time>2015-05-19T12:48:55Z</time>
</trkpt>
<trkpt lat="53.3486606" lon="18.4390509">
<ele>115</ele>
<time>2015-05-19T12:49:02Z</time>
</trkpt>
<trkpt lat="53.3486310" lon="18.4390305">
<ele>109</ele>
<time>2015-05-19T12:49:05Z</time>
</trkpt>
<trkpt lat="53.3490172" lon="18.4385119">
<ele>118</ele>
<time>2015-05-19T12:49:19Z</time>
</trkpt>
<trkpt lat="53.3490618" lon="18.4385777">
<ele>120</ele>
<time>2015-05-19T12:49:22Z</time>
</trkpt>
<trkpt lat="53.3490991" lon="18.4385565">
<ele>116</ele>
<time>2015-05-19T12:49:24Z</time>
</trkpt>
<trkpt lat="53.3491191" lon="18.4384943">
<ele>115</ele>
<time>2015-05-19T12:49:26Z</time>
</trkpt>
<trkpt lat="53.3491326" lon="18.4384191">
<ele>117</ele>
<time>2015-05-19T12:49:28Z</time>
</trkpt>
<trkpt lat="53.3491405" lon="18.4383506">
<ele>116</ele>
<time>2015-05-19T12:49:30Z</time>
</trkpt>
<trkpt lat="53.3491424" lon="18.4382994">
<ele>115</ele>
<time>2015-05-19T12:49:32Z</time>
</trkpt>
<trkpt lat="53.3491499" lon="18.4382446">
<ele>114</ele>
<time>2015-05-19T12:49:34Z</time>
</trkpt>
<trkpt lat="53.3491651" lon="18.4381856">
<ele>112</ele>
<time>2015-05-19T12:49:36Z</time>
</trkpt>
<trkpt lat="53.3491916" lon="18.4381089">
<ele>109</ele>
<time>2015-05-19T12:49:38Z</time>
</trkpt>
<trkpt lat="53.3492011" lon="18.4380188">
<ele>105</ele>
<time>2015-05-19T12:49:40Z</time>
</trkpt>
<trkpt lat="53.3492029" lon="18.4379127">
<ele>104</ele>
<time>2015-05-19T12:49:42Z</time>
</trkpt>
<trkpt lat="53.3492234" lon="18.4378002">
<ele>104</ele>
<time>2015-05-19T12:49:44Z</time>
</trkpt>
<trkpt lat="53.3492481" lon="18.4376828">
<ele>103</ele>
<time>2015-05-19T12:49:46Z</time>
</trkpt>
<trkpt lat="53.3492766" lon="18.4375611">
<ele>102</ele>
<time>2015-05-19T12:49:48Z</time>
</trkpt>
<trkpt lat="53.3493107" lon="18.4374267">
<ele>102</ele>
<time>2015-05-19T12:49:50Z</time>
</trkpt>
<trkpt lat="53.3493383" lon="18.4373011">
<ele>101</ele>
<time>2015-05-19T12:49:52Z</time>
</trkpt>
<trkpt lat="53.3493603" lon="18.4371994">
<ele>101</ele>
<time>2015-05-19T12:49:54Z</time>
</trkpt>
<trkpt lat="53.3493828" lon="18.4371028">
<ele>102</ele>
<time>2015-05-19T12:49:56Z</time>
</trkpt>
<trkpt lat="53.3494048" lon="18.4369953">
<ele>101</ele>
<time>2015-05-19T12:49:58Z</time>
</trkpt>
<trkpt lat="53.3494303" lon="18.4368855">
<ele>102</ele>
<time>2015-05-19T12:50:00Z</time>
</trkpt>
<trkpt lat="53.3494564" lon="18.4367769">
<ele>100</ele>
<time>2015-05-19T12:50:02Z</time>
</trkpt>
<trkpt lat="53.3494761" lon="18.4366864">
<ele>100</ele>
<time>2015-05-19T12:50:04Z</time>
</trkpt>
<trkpt lat="53.3494807" lon="18.4366320">
<ele>99</ele>
<time>2015-05-19T12:50:06Z</time>
</trkpt>
<trkpt lat="53.3494642" lon="18.4365978">
<ele>99</ele>
<time>2015-05-19T12:50:08Z</time>
</trkpt>
<trkpt lat="53.3494169" lon="18.4365826">
<ele>98</ele>
<time>2015-05-19T12:50:10Z</time>
</trkpt>
<trkpt lat="53.3493405" lon="18.4365532">
<ele>98</ele>
<time>2015-05-19T12:50:12Z</time>
</trkpt>
<trkpt lat="53.3492612" lon="18.4365220">
<ele>97</ele>
<time>2015-05-19T12:50:14Z</time>
</trkpt>
<trkpt lat="53.3491825" lon="18.4364880">
<ele>98</ele>
<time>2015-05-19T12:50:16Z</time>
</trkpt>
<trkpt lat="53.3491036" lon="18.4364542">
<ele>96</ele>
<time>2015-05-19T12:50:18Z</time>
</trkpt>
<trkpt lat="53.3490230" lon="18.4364294">
<ele>95</ele>
<time>2015-05-19T12:50:20Z</time>
</trkpt>
<trkpt lat="53.3489437" lon="18.4364150">
<ele>94</ele>
<time>2015-05-19T12:50:22Z</time>
</trkpt>
<trkpt lat="53.3488683" lon="18.4363911">
<ele>94</ele>
<time>2015-05-19T12:50:24Z</time>
</trkpt>
<trkpt lat="53.3488066" lon="18.4363540">
<ele>95</ele>
<time>2015-05-19T12:50:26Z</time>
</trkpt>
<trkpt lat="53.3487687" lon="18.4363027">
<ele>95</ele>
<time>2015-05-19T12:50:28Z</time>
</trkpt>
<trkpt lat="53.3487718" lon="18.4362127">
<ele>95</ele>
<time>2015-05-19T12:50:30Z</time>
</trkpt>
<trkpt lat="53.3487982" lon="18.4361387">
<ele>96</ele>
<time>2015-05-19T12:50:32Z</time>
</trkpt>
<trkpt lat="53.3488261" lon="18.4361234">
<ele>96</ele>
<time>2015-05-19T12:50:34Z</time>
</trkpt>
<trkpt lat="53.3488493" lon="18.4360957">
<ele>95</ele>
<time>2015-05-19T12:50:36Z</time>
</trkpt>
<trkpt lat="53.3488523" lon="18.4360249">
<ele>93</ele>
<time>2015-05-19T12:50:38Z</time>
</trkpt>
<trkpt lat="53.3488413" lon="18.4358976">
<ele>93</ele>
<time>2015-05-19T12:50:40Z</time>
</trkpt>
<trkpt lat="53.3488092" lon="18.4356679">
<ele>89</ele>
<time>2015-05-19T12:50:44Z</time>
</trkpt>
<trkpt lat="53.3488001" lon="18.4355670">
<ele>89</ele>
<time>2015-05-19T12:50:46Z</time>
</trkpt>
<trkpt lat="53.3487879" lon="18.4354644">
<ele>88</ele>
<time>2015-05-19T12:50:48Z</time>
</trkpt>
<trkpt lat="53.3487752" lon="18.4353507">
<ele>89</ele>
<time>2015-05-19T12:50:50Z</time>
</trkpt>
<trkpt lat="53.3487647" lon="18.4352354">
<ele>89</ele>
<time>2015-05-19T12:50:52Z</time>
</trkpt>
<trkpt lat="53.3487539" lon="18.4351194">
<ele>87</ele>
<time>2015-05-19T12:50:54Z</time>
</trkpt>
<trkpt lat="53.3487434" lon="18.4350059">
<ele>88</ele>
<time>2015-05-19T12:50:56Z</time>
</trkpt>
<trkpt lat="53.3487314" lon="18.4348871">
<ele>90</ele>
<time>2015-05-19T12:50:58Z</time>
</trkpt>
<trkpt lat="53.3487083" lon="18.4347585">
<ele>89</ele>
<time>2015-05-19T12:51:00Z</time>
</trkpt>
<trkpt lat="53.3486950" lon="18.4346314">
<ele>88</ele>
<time>2015-05-19T12:51:02Z</time>
</trkpt>
<trkpt lat="53.3486848" lon="18.4344902">
<ele>89</ele>
<time>2015-05-19T12:51:04Z</time>
</trkpt>
<trkpt lat="53.3486729" lon="18.4343406">
<ele>89</ele>
<time>2015-05-19T12:51:06Z</time>
</trkpt>
<trkpt lat="53.3486463" lon="18.4340695">
<ele>87</ele>
<time>2015-05-19T12:51:10Z</time>
</trkpt>
<trkpt lat="53.3486361" lon="18.4339440">
<ele>85</ele>
<time>2015-05-19T12:51:12Z</time>
</trkpt>
<trkpt lat="53.3486265" lon="18.4338123">
<ele>84</ele>
<time>2015-05-19T12:51:14Z</time>
</trkpt>
<trkpt lat="53.3485942" lon="18.4336048">
<ele>84</ele>
<time>2015-05-19T12:51:16Z</time>
</trkpt>
<trkpt lat="53.3485525" lon="18.4333765">
<ele>87</ele>
<time>2015-05-19T12:51:18Z</time>
</trkpt>
<trkpt lat="53.3484895" lon="18.4329789">
<ele>87</ele>
<time>2015-05-19T12:51:22Z</time>
</trkpt>
<trkpt lat="53.3484723" lon="18.4328434">
<ele>89</ele>
<time>2015-05-19T12:51:24Z</time>
</trkpt>
<trkpt lat="53.3484847" lon="18.4327697">
<ele>86</ele>
<time>2015-05-19T12:51:26Z</time>
</trkpt>
<trkpt lat="53.3484725" lon="18.4326535">
<ele>85</ele>
<time>2015-05-19T12:51:28Z</time>
</trkpt>
<trkpt lat="53.3484569" lon="18.4325493">
<ele>87</ele>
<time>2015-05-19T12:51:30Z</time>
</trkpt>
<trkpt lat="53.3484397" lon="18.4324656">
<ele>88</ele>
<time>2015-05-19T12:51:32Z</time>
</trkpt>
<trkpt lat="53.3484265" lon="18.4323666">
<ele>85</ele>
<time>2015-05-19T12:51:34Z</time>
</trkpt>
<trkpt lat="53.3484113" lon="18.4322499">
<ele>85</ele>
<time>2015-05-19T12:51:36Z</time>
</trkpt>
<trkpt lat="53.3483887" lon="18.4321078">
<ele>85</ele>
<time>2015-05-19T12:51:38Z</time>
</trkpt>
<trkpt lat="53.3483671" lon="18.4319752">
<ele>96</ele>
<time>2015-05-19T12:51:40Z</time>
</trkpt>
<trkpt lat="53.3483542" lon="18.4318583">
<ele>92</ele>
<time>2015-05-19T12:51:42Z</time>
</trkpt>
<trkpt lat="53.3483302" lon="18.4317402">
<ele>91</ele>
<time>2015-05-19T12:51:44Z</time>
</trkpt>
<trkpt lat="53.3483137" lon="18.4316155">
<ele>91</ele>
<time>2015-05-19T12:51:46Z</time>
</trkpt>
<trkpt lat="53.3482999" lon="18.4314468">
<ele>91</ele>
<time>2015-05-19T12:51:48Z</time>
</trkpt>
<trkpt lat="53.3482919" lon="18.4311428">
<ele>91</ele>
<time>2015-05-19T12:51:50Z</time>
</trkpt>
<trkpt lat="53.3483048" lon="18.4309589">
<ele>92</ele>
<time>2015-05-19T12:51:52Z</time>
</trkpt>
<trkpt lat="53.3482875" lon="18.4307962">
<ele>93</ele>
<time>2015-05-19T12:51:54Z</time>
</trkpt>
<trkpt lat="53.3482650" lon="18.4306255">
<ele>94</ele>
<time>2015-05-19T12:51:56Z</time>
</trkpt>
<trkpt lat="53.3482032" lon="18.4303921">
<ele>97</ele>
<time>2015-05-19T12:51:58Z</time>
</trkpt>
<trkpt lat="53.3481917" lon="18.4302339">
<ele>97</ele>
<time>2015-05-19T12:52:00Z</time>
</trkpt>
<trkpt lat="53.3481585" lon="18.4300543">
<ele>96</ele>
<time>2015-05-19T12:52:02Z</time>
</trkpt>
<trkpt lat="53.3481576" lon="18.4298471">
<ele>98</ele>
<time>2015-05-19T12:52:04Z</time>
</trkpt>
<trkpt lat="53.348147" lon="18.4296610">
<ele>98</ele>
<time>2015-05-19T12:52:06Z</time>
</trkpt>
<trkpt lat="53.3481426" lon="18.4294945">
<ele>100</ele>
<time>2015-05-19T12:52:08Z</time>
</trkpt>
<trkpt lat="53.3481985" lon="18.4294363">
<ele>101</ele>
<time>2015-05-19T12:52:10Z</time>
</trkpt>
<trkpt lat="53.3482029" lon="18.4292371">
<ele>100</ele>
<time>2015-05-19T12:52:12Z</time>
</trkpt>
<trkpt lat="53.3482124" lon="18.4290415">
<ele>104</ele>
<time>2015-05-19T12:52:14Z</time>
</trkpt>
<trkpt lat="53.3482208" lon="18.4288875">
<ele>102</ele>
<time>2015-05-19T12:52:16Z</time>
</trkpt>
<trkpt lat="53.3482149" lon="18.4287450">
<ele>103</ele>
<time>2015-05-19T12:52:18Z</time>
</trkpt>
<trkpt lat="53.3482283" lon="18.4285370">
<ele>103</ele>
<time>2015-05-19T12:52:20Z</time>
</trkpt>
<trkpt lat="53.3482187" lon="18.4283828">
<ele>102</ele>
<time>2015-05-19T12:52:22Z</time>
</trkpt>
<trkpt lat="53.3482126" lon="18.4281662">
<ele>100</ele>
<time>2015-05-19T12:52:24Z</time>
</trkpt>
<trkpt lat="53.3482157" lon="18.4280065">
<ele>102</ele>
<time>2015-05-19T12:52:26Z</time>
</trkpt>
<trkpt lat="53.3482436" lon="18.4278599">
<ele>103</ele>
<time>2015-05-19T12:52:28Z</time>
</trkpt>
<trkpt lat="53.3481960" lon="18.4276039">
<ele>107</ele>
<time>2015-05-19T12:52:30Z</time>
</trkpt>
<trkpt lat="53.3481855" lon="18.4274489">
<ele>110</ele>
<time>2015-05-19T12:52:32Z</time>
</trkpt>
<trkpt lat="53.3481481" lon="18.4273204">
<ele>111</ele>
<time>2015-05-19T12:52:34Z</time>
</trkpt>
<trkpt lat="53.3481261" lon="18.4272700">
<ele>111</ele>
<time>2015-05-19T12:52:36Z</time>
</trkpt>
<trkpt lat="53.3480925" lon="18.4271794">
<ele>110</ele>
<time>2015-05-19T12:52:38Z</time>
</trkpt>
<trkpt lat="53.3480603" lon="18.4270603">
<ele>110</ele>
<time>2015-05-19T12:52:40Z</time>
</trkpt>
<trkpt lat="53.3480304" lon="18.4269404">
<ele>110</ele>
<time>2015-05-19T12:52:42Z</time>
</trkpt>
<trkpt lat="53.3480120" lon="18.4268752">
<ele>111</ele>
<time>2015-05-19T12:52:44Z</time>
</trkpt>
<trkpt lat="53.3479894" lon="18.4267924">
<ele>111</ele>
<time>2015-05-19T12:52:46Z</time>
</trkpt>
<trkpt lat="53.3479773" lon="18.4267193">
<ele>109</ele>
<time>2015-05-19T12:52:48Z</time>
</trkpt>
<trkpt lat="53.3479580" lon="18.4266760">
<ele>106</ele>
<time>2015-05-19T12:52:50Z</time>
</trkpt>
<trkpt lat="53.3479062" lon="18.4266391">
<ele>104</ele>
<time>2015-05-19T12:52:52Z</time>
</trkpt>
<trkpt lat="53.3478544" lon="18.4265984">
<ele>103</ele>
<time>2015-05-19T12:52:54Z</time>
</trkpt>
<trkpt lat="53.3478369" lon="18.4265446">
<ele>102</ele>
<time>2015-05-19T12:52:56Z</time>
</trkpt>
<trkpt lat="53.3478139" lon="18.4264749">
<ele>103</ele>
<time>2015-05-19T12:52:58Z</time>
</trkpt>
<trkpt lat="53.3477872" lon="18.4264094">
<ele>102</ele>
<time>2015-05-19T12:53:00Z</time>
</trkpt>
<trkpt lat="53.3477649" lon="18.4263510">
<ele>102</ele>
<time>2015-05-19T12:53:02Z</time>
</trkpt>
<trkpt lat="53.3477411" lon="18.4262899">
<ele>101</ele>
<time>2015-05-19T12:53:04Z</time>
</trkpt>
<trkpt lat="53.3477080" lon="18.4262403">
<ele>101</ele>
<time>2015-05-19T12:53:06Z</time>
</trkpt>
<trkpt lat="53.3476876" lon="18.4262157">
<ele>101</ele>
<time>2015-05-19T12:53:08Z</time>
</trkpt>
<trkpt lat="53.3477041" lon="18.4262168">
<ele>99</ele>
<time>2015-05-19T12:53:10Z</time>
</trkpt>
<trkpt lat="53.3477228" lon="18.4261980">
<ele>100</ele>
<time>2015-05-19T12:53:12Z</time>
</trkpt>
<trkpt lat="53.3477439" lon="18.4261620">
<ele>100</ele>
<time>2015-05-19T12:53:14Z</time>
</trkpt>
<trkpt lat="53.3477672" lon="18.4261216">
<ele>105</ele>
<time>2015-05-19T12:53:16Z</time>
</trkpt>
<trkpt lat="53.3477624" lon="18.4260565">
<ele>105</ele>
<time>2015-05-19T12:53:18Z</time>
</trkpt>
<trkpt lat="53.3477406" lon="18.4259826">
<ele>108</ele>
<time>2015-05-19T12:53:20Z</time>
</trkpt>
<trkpt lat="53.3477281" lon="18.4259031">
<ele>104</ele>
<time>2015-05-19T12:53:22Z</time>
</trkpt>
<trkpt lat="53.3477256" lon="18.4258568">
<ele>106</ele>
<time>2015-05-19T12:53:24Z</time>
</trkpt>
<trkpt lat="53.3477446" lon="18.4258290">
<ele>105</ele>
<time>2015-05-19T12:53:26Z</time>
</trkpt>
<trkpt lat="53.3477814" lon="18.4257996">
<ele>103</ele>
<time>2015-05-19T12:53:28Z</time>
</trkpt>
<trkpt lat="53.3478308" lon="18.4257453">
<ele>102</ele>
<time>2015-05-19T12:53:30Z</time>
</trkpt>
<trkpt lat="53.3478761" lon="18.4256991">
<ele>103</ele>
<time>2015-05-19T12:53:32Z</time>
</trkpt>
<trkpt lat="53.3479194" lon="18.4256506">
<ele>103</ele>
<time>2015-05-19T12:53:34Z</time>
</trkpt>
<trkpt lat="53.3479571" lon="18.4255988">
<ele>104</ele>
<time>2015-05-19T12:53:36Z</time>
</trkpt>
<trkpt lat="53.3479942" lon="18.4255460">
<ele>105</ele>
<time>2015-05-19T12:53:38Z</time>
</trkpt>
<trkpt lat="53.3480379" lon="18.4255007">
<ele>105</ele>
<time>2015-05-19T12:53:40Z</time>
</trkpt>
<trkpt lat="53.3480933" lon="18.4254755">
<ele>108</ele>
<time>2015-05-19T12:53:42Z</time>
</trkpt>
<trkpt lat="53.3481420" lon="18.4254580">
<ele>108</ele>
<time>2015-05-19T12:53:44Z</time>
</trkpt>
<trkpt lat="53.3481729" lon="18.4254173">
<ele>109</ele>
<time>2015-05-19T12:53:46Z</time>
</trkpt>
<trkpt lat="53.348191" lon="18.4253796">
<ele>111</ele>
<time>2015-05-19T12:53:48Z</time>
</trkpt>
<trkpt lat="53.3482116" lon="18.4253440">
<ele>110</ele>
<time>2015-05-19T12:53:50Z</time>
</trkpt>
<trkpt lat="53.3482354" lon="18.425285">
<ele>109</ele>
<time>2015-05-19T12:53:52Z</time>
</trkpt>
<trkpt lat="53.3482474" lon="18.4251921">
<ele>108</ele>
<time>2015-05-19T12:53:54Z</time>
</trkpt>
<trkpt lat="53.3482579" lon="18.4251103">
<ele>106</ele>
<time>2015-05-19T12:53:56Z</time>
</trkpt>
<trkpt lat="53.3482765" lon="18.4250486">
<ele>104</ele>
<time>2015-05-19T12:53:58Z</time>
</trkpt>
<trkpt lat="53.3482872" lon="18.4250238">
<ele>105</ele>
<time>2015-05-19T12:54:00Z</time>
</trkpt>
<trkpt lat="53.3482973" lon="18.4250132">
<ele>107</ele>
<time>2015-05-19T12:54:02Z</time>
</trkpt>
<trkpt lat="53.3482933" lon="18.4249981">
<ele>106</ele>
<time>2015-05-19T12:54:04Z</time>
</trkpt>
<trkpt lat="53.3482618" lon="18.4249604">
<ele>109</ele>
<time>2015-05-19T12:54:06Z</time>
</trkpt>
<trkpt lat="53.3481930" lon="18.4248574">
<ele>111</ele>
<time>2015-05-19T12:54:08Z</time>
</trkpt>
<trkpt lat="53.3481053" lon="18.4246416">
<ele>112</ele>
<time>2015-05-19T12:54:10Z</time>
</trkpt>
<trkpt lat="53.3480877" lon="18.4244030">
<ele>112</ele>
<time>2015-05-19T12:54:12Z</time>
</trkpt>
<trkpt lat="53.3480591" lon="18.4241950">
<ele>111</ele>
<time>2015-05-19T12:54:14Z</time>
</trkpt>
<trkpt lat="53.3479709" lon="18.4240548">
<ele>108</ele>
<time>2015-05-19T12:54:16Z</time>
</trkpt>
<trkpt lat="53.3478987" lon="18.4239025">
<ele>111</ele>
<time>2015-05-19T12:54:18Z</time>
</trkpt>
<trkpt lat="53.3478322" lon="18.4237161">
<ele>112</ele>
<time>2015-05-19T12:54:20Z</time>
</trkpt>
<trkpt lat="53.3477737" lon="18.4236545">
<ele>114</ele>
<time>2015-05-19T12:54:22Z</time>
</trkpt>
<trkpt lat="53.3477291" lon="18.4235270">
<ele>114</ele>
<time>2015-05-19T12:54:24Z</time>
</trkpt>
<trkpt lat="53.3477184" lon="18.4233548">
<ele>114</ele>
<time>2015-05-19T12:54:26Z</time>
</trkpt>
<trkpt lat="53.3477551" lon="18.4231588">
<ele>115</ele>
<time>2015-05-19T12:54:28Z</time>
</trkpt>
<trkpt lat="53.3477589" lon="18.4230064">
<ele>116</ele>
<time>2015-05-19T12:54:30Z</time>
</trkpt>
<trkpt lat="53.3477271" lon="18.4228499">
<ele>112</ele>
<time>2015-05-19T12:54:32Z</time>
</trkpt>
<trkpt lat="53.3476811" lon="18.4226679">
<ele>112</ele>
<time>2015-05-19T12:54:34Z</time>
</trkpt>
<trkpt lat="53.3476304" lon="18.4225031">
<ele>111</ele>
<time>2015-05-19T12:54:36Z</time>
</trkpt>
<trkpt lat="53.3476145" lon="18.4223937">
<ele>110</ele>
<time>2015-05-19T12:54:38Z</time>
</trkpt>
<trkpt lat="53.347609" lon="18.4223126">
<ele>107</ele>
<time>2015-05-19T12:54:40Z</time>
</trkpt>
<trkpt lat="53.3475998" lon="18.4222467">
<ele>106</ele>
<time>2015-05-19T12:54:42Z</time>
</trkpt>
<trkpt lat="53.3475165" lon="18.4222464">
<ele>102</ele>
<time>2015-05-19T12:54:44Z</time>
</trkpt>
<trkpt lat="53.3474988" lon="18.4221379">
<ele>101</ele>
<time>2015-05-19T12:54:46Z</time>
</trkpt>
<trkpt lat="53.3474487" lon="18.4220213">
<ele>99</ele>
<time>2015-05-19T12:54:48Z</time>
</trkpt>
<trkpt lat="53.3474079" lon="18.4218881">
<ele>98</ele>
<time>2015-05-19T12:54:50Z</time>
</trkpt>
<trkpt lat="53.3473806" lon="18.4218201">
<ele>99</ele>
<time>2015-05-19T12:54:52Z</time>
</trkpt>
<trkpt lat="53.3473333" lon="18.4216989">
<ele>98</ele>
<time>2015-05-19T12:54:54Z</time>
</trkpt>
<trkpt lat="53.3472965" lon="18.4215571">
<ele>97</ele>
<time>2015-05-19T12:54:56Z</time>
</trkpt>
<trkpt lat="53.3472432" lon="18.4214613">
<ele>95</ele>
<time>2015-05-19T12:54:58Z</time>
</trkpt>
<trkpt lat="53.3472185" lon="18.4213815">
<ele>93</ele>
<time>2015-05-19T12:55:00Z</time>
</trkpt>
<trkpt lat="53.3471885" lon="18.4212834">
<ele>94</ele>
<time>2015-05-19T12:55:02Z</time>
</trkpt>
<trkpt lat="53.3471705" lon="18.4211839">
<ele>96</ele>
<time>2015-05-19T12:55:04Z</time>
</trkpt>
<trkpt lat="53.3471575" lon="18.4210989">
<ele>96</ele>
<time>2015-05-19T12:55:06Z</time>
</trkpt>
<trkpt lat="53.3471414" lon="18.4209989">
<ele>99</ele>
<time>2015-05-19T12:55:08Z</time>
</trkpt>
<trkpt lat="53.3471202" lon="18.4208835">
<ele>97</ele>
<time>2015-05-19T12:55:10Z</time>
</trkpt>
<trkpt lat="53.3471199" lon="18.4207808">
<ele>97</ele>
<time>2015-05-19T12:55:12Z</time>
</trkpt>
<trkpt lat="53.3471199" lon="18.4207033">
<ele>97</ele>
<time>2015-05-19T12:55:14Z</time>
</trkpt>
<trkpt lat="53.3471177" lon="18.4206160">
<ele>96</ele>
<time>2015-05-19T12:55:16Z</time>
</trkpt>
<trkpt lat="53.3471083" lon="18.4205418">
<ele>101</ele>
<time>2015-05-19T12:55:18Z</time>
</trkpt>
<trkpt lat="53.3471030" lon="18.4205098">
<ele>101</ele>
<time>2015-05-19T12:55:20Z</time>
</trkpt>
<trkpt lat="53.3470990" lon="18.4205084">
<ele>102</ele>
<time>2015-05-19T12:55:22Z</time>
</trkpt>
<trkpt lat="53.3471011" lon="18.4204962">
<ele>101</ele>
<time>2015-05-19T12:55:24Z</time>
</trkpt>
<trkpt lat="53.3471164" lon="18.4204823">
<ele>105</ele>
<time>2015-05-19T12:55:26Z</time>
</trkpt>
<trkpt lat="53.3471302" lon="18.4204546">
<ele>108</ele>
<time>2015-05-19T12:55:28Z</time>
</trkpt>
<trkpt lat="53.3471482" lon="18.4204042">
<ele>109</ele>
<time>2015-05-19T12:55:30Z</time>
</trkpt>
<trkpt lat="53.3471644" lon="18.4203589">
<ele>112</ele>
<time>2015-05-19T12:55:32Z</time>
</trkpt>
<trkpt lat="53.3471777" lon="18.4202822">
<ele>113</ele>
<time>2015-05-19T12:55:34Z</time>
</trkpt>
<trkpt lat="53.3471790" lon="18.4202316">
<ele>116</ele>
<time>2015-05-19T12:55:36Z</time>
</trkpt>
<trkpt lat="53.3471669" lon="18.4202141">
<ele>115</ele>
<time>2015-05-19T12:55:38Z</time>
</trkpt>
<trkpt lat="53.3471464" lon="18.4202254">
<ele>115</ele>
<time>2015-05-19T12:55:40Z</time>
</trkpt>
<trkpt lat="53.3471259" lon="18.4202328">
<ele>114</ele>
<time>2015-05-19T12:55:42Z</time>
</trkpt>
<trkpt lat="53.3470995" lon="18.4202310">
<ele>112</ele>
<time>2015-05-19T12:55:44Z</time>
</trkpt>
<trkpt lat="53.347079" lon="18.4201925">
<ele>112</ele>
<time>2015-05-19T12:55:46Z</time>
</trkpt>
<trkpt lat="53.3470662" lon="18.4201490">
<ele>112</ele>
<time>2015-05-19T12:55:48Z</time>
</trkpt>
<trkpt lat="53.3470588" lon="18.4201066">
<ele>113</ele>
<time>2015-05-19T12:55:50Z</time>
</trkpt>
<trkpt lat="53.3470562" lon="18.4200636">
<ele>113</ele>
<time>2015-05-19T12:55:52Z</time>
</trkpt>
<trkpt lat="53.3470505" lon="18.4200310">
<ele>113</ele>
<time>2015-05-19T12:55:54Z</time>
</trkpt>
<trkpt lat="53.3470171" lon="18.4200140">
<ele>112</ele>
<time>2015-05-19T12:55:56Z</time>
</trkpt>
<trkpt lat="53.34698" lon="18.4200027">
<ele>112</ele>
<time>2015-05-19T12:55:58Z</time>
</trkpt>
<trkpt lat="53.3469453" lon="18.4200066">
<ele>112</ele>
<time>2015-05-19T12:56:00Z</time>
</trkpt>
<trkpt lat="53.3470718" lon="18.4201871">
<ele>112</ele>
<time>2015-05-19T12:56:35Z</time>
</trkpt>
<trkpt lat="53.3471140" lon="18.4201845">
<ele>104</ele>
<time>2015-05-19T12:56:38Z</time>
</trkpt>
<trkpt lat="53.3471327" lon="18.4201681">
<ele>104</ele>
<time>2015-05-19T12:56:40Z</time>
</trkpt>
<trkpt lat="53.3471543" lon="18.4201268">
<ele>105</ele>
<time>2015-05-19T12:56:42Z</time>
</trkpt>
<trkpt lat="53.3471616" lon="18.4200837">
<ele>107</ele>
<time>2015-05-19T12:56:44Z</time>
</trkpt>
<trkpt lat="53.3471614" lon="18.4200448">
<ele>107</ele>
<time>2015-05-19T12:56:46Z</time>
</trkpt>
<trkpt lat="53.3471550" lon="18.4200137">
<ele>108</ele>
<time>2015-05-19T12:56:48Z</time>
</trkpt>
<trkpt lat="53.3471488" lon="18.4199749">
<ele>104</ele>
<time>2015-05-19T12:56:50Z</time>
</trkpt>
<trkpt lat="53.3471580" lon="18.4199002">
<ele>105</ele>
<time>2015-05-19T12:56:52Z</time>
</trkpt>
<trkpt lat="53.3471597" lon="18.4198344">
<ele>100</ele>
<time>2015-05-19T12:56:54Z</time>
</trkpt>
<trkpt lat="53.3471544" lon="18.4197935">
<ele>103</ele>
<time>2015-05-19T12:56:56Z</time>
</trkpt>
<trkpt lat="53.3471544" lon="18.4197528">
<ele>102</ele>
<time>2015-05-19T12:56:58Z</time>
</trkpt>
<trkpt lat="53.3471566" lon="18.4197179">
<ele>103</ele>
<time>2015-05-19T12:57:00Z</time>
</trkpt>
<trkpt lat="53.3471568" lon="18.4197279">
<ele>100</ele>
<time>2015-05-19T12:57:02Z</time>
</trkpt>
<trkpt lat="53.3471556" lon="18.4198055">
<ele>99</ele>
<time>2015-05-19T12:57:04Z</time>
</trkpt>
<trkpt lat="53.3471302" lon="18.4198021">
<ele>99</ele>
<time>2015-05-19T12:57:06Z</time>
</trkpt>
<trkpt lat="53.3471182" lon="18.4197862">
<ele>98</ele>
<time>2015-05-19T12:57:08Z</time>
</trkpt>
<trkpt lat="53.3471096" lon="18.4197729">
<ele>99</ele>
<time>2015-05-19T12:57:10Z</time>
</trkpt>
<trkpt lat="53.3471194" lon="18.4197965">
<ele>97</ele>
<time>2015-05-19T12:57:12Z</time>
</trkpt>
<trkpt lat="53.3471218" lon="18.4198104">
<ele>98</ele>
<time>2015-05-19T12:57:14Z</time>
</trkpt>
<trkpt lat="53.3471200" lon="18.4198115">
<ele>98</ele>
<time>2015-05-19T12:57:16Z</time>
</trkpt>
<trkpt lat="53.3471181" lon="18.4198084">
<ele>98</ele>
<time>2015-05-19T12:57:18Z</time>
</trkpt>
<trkpt lat="53.3471156" lon="18.4198046">
<ele>98</ele>
<time>2015-05-19T12:57:20Z</time>
</trkpt>
<trkpt lat="53.3471142" lon="18.4198027">
<ele>98</ele>
<time>2015-05-19T12:57:22Z</time>
</trkpt>
<trkpt lat="53.3471134" lon="18.4198018">
<ele>98</ele>
<time>2015-05-19T12:57:24Z</time>
</trkpt>
<trkpt lat="53.3471124" lon="18.4198011">
<ele>98</ele>
<time>2015-05-19T12:57:26Z</time>
</trkpt>
<trkpt lat="53.3471116" lon="18.4198001">
<ele>98</ele>
<time>2015-05-19T12:57:28Z</time>
</trkpt>
<trkpt lat="53.3471114" lon="18.4198002">
<ele>98</ele>
<time>2015-05-19T12:57:30Z</time>
</trkpt>
<trkpt lat="53.3471114" lon="18.4198004">
<ele>98</ele>
<time>2015-05-19T12:57:32Z</time>
</trkpt>
<trkpt lat="53.3471113" lon="18.4198004">
<ele>98</ele>
<time>2015-05-19T12:57:34Z</time>
</trkpt>
<trkpt lat="53.3471113" lon="18.4198005">
<ele>98</ele>
<time>2015-05-19T12:57:36Z</time>
</trkpt>
<trkpt lat="53.3471112" lon="18.4198004">
<ele>98</ele>
<time>2015-05-19T12:57:38Z</time>
</trkpt>
<trkpt lat="53.3471112" lon="18.4198002">
<ele>98</ele>
<time>2015-05-19T12:57:40Z</time>
</trkpt>
<trkpt lat="53.3471112" lon="18.4198002">
<ele>98</ele>
<time>2015-05-19T12:57:42Z</time>
</trkpt>
<trkpt lat="53.3471112" lon="18.4198001">
<ele>98</ele>
<time>2015-05-19T12:57:44Z</time>
</trkpt>
<trkpt lat="53.3471112" lon="18.4198001">
<ele>98</ele>
<time>2015-05-19T12:57:46Z</time>
</trkpt>
<trkpt lat="53.3471112" lon="18.4198001">
<ele>98</ele>
<time>2015-05-19T12:57:48Z</time>
</trkpt>
<trkpt lat="53.3471113" lon="18.4198001">
<ele>98</ele>
<time>2015-05-19T12:57:50Z</time>
</trkpt>
<trkpt lat="53.3471113" lon="18.4198001">
<ele>98</ele>
<time>2015-05-19T12:57:52Z</time>
</trkpt>
<trkpt lat="53.3471113" lon="18.4198003">
<ele>98</ele>
<time>2015-05-19T12:57:54Z</time>
</trkpt>
<trkpt lat="53.3471112" lon="18.4198003">
<ele>98</ele>
<time>2015-05-19T12:57:56Z</time>
</trkpt>
<trkpt lat="53.3471113" lon="18.4198005">
<ele>98</ele>
<time>2015-05-19T12:57:58Z</time>
</trkpt>
<trkpt lat="53.3471113" lon="18.4198006">
<ele>98</ele>
<time>2015-05-19T12:58:00Z</time>
</trkpt>
<trkpt lat="53.3471113" lon="18.4198007">
<ele>98</ele>
<time>2015-05-19T12:58:02Z</time>
</trkpt>
<trkpt lat="53.3471113" lon="18.4198007">
<ele>98</ele>
<time>2015-05-19T12:58:04Z</time>
</trkpt>
<trkpt lat="53.3471114" lon="18.4198009">
<ele>98</ele>
<time>2015-05-19T12:58:06Z</time>
</trkpt>
<trkpt lat="53.3471115" lon="18.4198011">
<ele>98</ele>
<time>2015-05-19T12:58:08Z</time>
</trkpt>
<trkpt lat="53.3471116" lon="18.4198013">
<ele>98</ele>
<time>2015-05-19T12:58:10Z</time>
</trkpt>
<trkpt lat="53.3471118" lon="18.4198017">
<ele>98</ele>
<time>2015-05-19T12:58:12Z</time>
</trkpt>
<trkpt lat="53.3471119" lon="18.4198019">
<ele>98</ele>
<time>2015-05-19T12:58:14Z</time>
</trkpt>
<trkpt lat="53.3471096" lon="18.4198075">
<ele>99</ele>
<time>2015-05-19T12:58:16Z</time>
</trkpt>
<trkpt lat="53.3471132" lon="18.4198460">
<ele>102</ele>
<time>2015-05-19T12:58:18Z</time>
</trkpt>
<trkpt lat="53.3471284" lon="18.4199061">
<ele>98</ele>
<time>2015-05-19T12:58:20Z</time>
</trkpt>
<trkpt lat="53.3471783" lon="18.4199693">
<ele>99</ele>
<time>2015-05-19T12:58:22Z</time>
</trkpt>
<trkpt lat="53.3472327" lon="18.4200147">
<ele>101</ele>
<time>2015-05-19T12:58:24Z</time>
</trkpt>
<trkpt lat="53.3472674" lon="18.4201049">
<ele>101</ele>
<time>2015-05-19T12:58:26Z</time>
</trkpt>
<trkpt lat="53.3472810" lon="18.4201879">
<ele>102</ele>
<time>2015-05-19T12:58:28Z</time>
</trkpt>
<trkpt lat="53.3472773" lon="18.4202497">
<ele>101</ele>
<time>2015-05-19T12:58:30Z</time>
</trkpt>
<trkpt lat="53.3472591" lon="18.4203202">
<ele>98</ele>
<time>2015-05-19T12:58:32Z</time>
</trkpt>
<trkpt lat="53.3472318" lon="18.4204297">
<ele>99</ele>
<time>2015-05-19T12:58:34Z</time>
</trkpt>
<trkpt lat="53.3471869" lon="18.4205607">
<ele>99</ele>
<time>2015-05-19T12:58:36Z</time>
</trkpt>
<trkpt lat="53.3471422" lon="18.4206875">
<ele>98</ele>
<time>2015-05-19T12:58:38Z</time>
</trkpt>
<trkpt lat="53.3471391" lon="18.4208307">
<ele>96</ele>
<time>2015-05-19T12:58:40Z</time>
</trkpt>
<trkpt lat="53.3471721" lon="18.4209834">
<ele>98</ele>
<time>2015-05-19T12:58:42Z</time>
</trkpt>
<trkpt lat="53.3472166" lon="18.4212694">
<ele>102</ele>
<time>2015-05-19T12:58:44Z</time>
</trkpt>
<trkpt lat="53.3472457" lon="18.4213435">
<ele>104</ele>
<time>2015-05-19T12:58:46Z</time>
</trkpt>
<trkpt lat="53.3472773" lon="18.4214380">
<ele>105</ele>
<time>2015-05-19T12:58:48Z</time>
</trkpt>
<trkpt lat="53.3472978" lon="18.4215474">
<ele>106</ele>
<time>2015-05-19T12:58:50Z</time>
</trkpt>
<trkpt lat="53.3473234" lon="18.4216223">
<ele>105</ele>
<time>2015-05-19T12:58:52Z</time>
</trkpt>
<trkpt lat="53.3473517" lon="18.4217274">
<ele>107</ele>
<time>2015-05-19T12:58:54Z</time>
</trkpt>
<trkpt lat="53.3473865" lon="18.4218468">
<ele>108</ele>
<time>2015-05-19T12:58:56Z</time>
</trkpt>
<trkpt lat="53.3474258" lon="18.4219758">
<ele>107</ele>
<time>2015-05-19T12:58:58Z</time>
</trkpt>
<trkpt lat="53.3474616" lon="18.4221017">
<ele>107</ele>
<time>2015-05-19T12:59:00Z</time>
</trkpt>
<trkpt lat="53.3474976" lon="18.4222293">
<ele>108</ele>
<time>2015-05-19T12:59:02Z</time>
</trkpt>
<trkpt lat="53.3475351" lon="18.4223551">
<ele>108</ele>
<time>2015-05-19T12:59:04Z</time>
</trkpt>
<trkpt lat="53.3475761" lon="18.4224763">
<ele>104</ele>
<time>2015-05-19T12:59:06Z</time>
</trkpt>
<trkpt lat="53.3476355" lon="18.4226126">
<ele>103</ele>
<time>2015-05-19T12:59:08Z</time>
</trkpt>
<trkpt lat="53.3476904" lon="18.4227601">
<ele>102</ele>
<time>2015-05-19T12:59:10Z</time>
</trkpt>
<trkpt lat="53.3477342" lon="18.4229051">
<ele>102</ele>
<time>2015-05-19T12:59:12Z</time>
</trkpt>
<trkpt lat="53.3477653" lon="18.4230039">
<ele>102</ele>
<time>2015-05-19T12:59:14Z</time>
</trkpt>
<trkpt lat="53.3477710" lon="18.4230690">
<ele>100</ele>
<time>2015-05-19T12:59:16Z</time>
</trkpt>
<trkpt lat="53.3478079" lon="18.4231444">
<ele>101</ele>
<time>2015-05-19T12:59:18Z</time>
</trkpt>
<trkpt lat="53.3478276" lon="18.4231947">
<ele>99</ele>
<time>2015-05-19T12:59:20Z</time>
</trkpt>
<trkpt lat="53.3478940" lon="18.4233954">
<ele>99</ele>
<time>2015-05-19T12:59:24Z</time>
</trkpt>
<trkpt lat="53.3479352" lon="18.4235238">
<ele>101</ele>
<time>2015-05-19T12:59:26Z</time>
</trkpt>
<trkpt lat="53.3479919" lon="18.4236842">
<ele>102</ele>
<time>2015-05-19T12:59:28Z</time>
</trkpt>
<trkpt lat="53.3480561" lon="18.4238349">
<ele>103</ele>
<time>2015-05-19T12:59:30Z</time>
</trkpt>
<trkpt lat="53.3480927" lon="18.4239599">
<ele>99</ele>
<time>2015-05-19T12:59:32Z</time>
</trkpt>
<trkpt lat="53.3481555" lon="18.4240905">
<ele>99</ele>
<time>2015-05-19T12:59:34Z</time>
</trkpt>
<trkpt lat="53.3482202" lon="18.4242432">
<ele>99</ele>
<time>2015-05-19T12:59:36Z</time>
</trkpt>
<trkpt lat="53.3482761" lon="18.4243851">
<ele>98</ele>
<time>2015-05-19T12:59:38Z</time>
</trkpt>
<trkpt lat="53.3483279" lon="18.4245405">
<ele>99</ele>
<time>2015-05-19T12:59:40Z</time>
</trkpt>
<trkpt lat="53.3483793" lon="18.4246976">
<ele>99</ele>
<time>2015-05-19T12:59:42Z</time>
</trkpt>
<trkpt lat="53.3484263" lon="18.4248767">
<ele>100</ele>
<time>2015-05-19T12:59:44Z</time>
</trkpt>
<trkpt lat="53.3484750" lon="18.4250519">
<ele>100</ele>
<time>2015-05-19T12:59:46Z</time>
</trkpt>
<trkpt lat="53.3485341" lon="18.4252214">
<ele>101</ele>
<time>2015-05-19T12:59:48Z</time>
</trkpt>
<trkpt lat="53.3486009" lon="18.4253728">
<ele>98</ele>
<time>2015-05-19T12:59:50Z</time>
</trkpt>
<trkpt lat="53.3487230" lon="18.4256965">
<ele>97</ele>
<time>2015-05-19T12:59:54Z</time>
</trkpt>
<trkpt lat="53.3487835" lon="18.4258459">
<ele>97</ele>
<time>2015-05-19T12:59:56Z</time>
</trkpt>
<trkpt lat="53.3488289" lon="18.4260086">
<ele>98</ele>
<time>2015-05-19T12:59:58Z</time>
</trkpt>
<trkpt lat="53.3488627" lon="18.4261368">
<ele>98</ele>
<time>2015-05-19T13:00:00Z</time>
</trkpt>
<trkpt lat="53.3488831" lon="18.4261879">
<ele>98</ele>
<time>2015-05-19T13:00:02Z</time>
</trkpt>
<trkpt lat="53.3489078" lon="18.4262603">
<ele>97</ele>
<time>2015-05-19T13:00:04Z</time>
</trkpt>
<trkpt lat="53.3489384" lon="18.4263733">
<ele>97</ele>
<time>2015-05-19T13:00:06Z</time>
</trkpt>
<trkpt lat="53.3489795" lon="18.4265033">
<ele>97</ele>
<time>2015-05-19T13:00:08Z</time>
</trkpt>
<trkpt lat="53.3490264" lon="18.4266417">
<ele>97</ele>
<time>2015-05-19T13:00:10Z</time>
</trkpt>
<trkpt lat="53.3490672" lon="18.4267939">
<ele>99</ele>
<time>2015-05-19T13:00:12Z</time>
</trkpt>
<trkpt lat="53.3491223" lon="18.4269484">
<ele>98</ele>
<time>2015-05-19T13:00:14Z</time>
</trkpt>
<trkpt lat="53.3491671" lon="18.4270985">
<ele>96</ele>
<time>2015-05-19T13:00:16Z</time>
</trkpt>
<trkpt lat="53.3492277" lon="18.4272448">
<ele>95</ele>
<time>2015-05-19T13:00:18Z</time>
</trkpt>
<trkpt lat="53.3492743" lon="18.4273806">
<ele>94</ele>
<time>2015-05-19T13:00:20Z</time>
</trkpt>
<trkpt lat="53.3493221" lon="18.4275330">
<ele>93</ele>
<time>2015-05-19T13:00:22Z</time>
</trkpt>
<trkpt lat="53.3493555" lon="18.4276961">
<ele>95</ele>
<time>2015-05-19T13:00:24Z</time>
</trkpt>
<trkpt lat="53.3494190" lon="18.4278355">
<ele>95</ele>
<time>2015-05-19T13:00:26Z</time>
</trkpt>
<trkpt lat="53.3494785" lon="18.4279832">
<ele>96</ele>
<time>2015-05-19T13:00:28Z</time>
</trkpt>
<trkpt lat="53.3495422" lon="18.4281461">
<ele>97</ele>
<time>2015-05-19T13:00:30Z</time>
</trkpt>
<trkpt lat="53.3496032" lon="18.4282988">
<ele>96</ele>
<time>2015-05-19T13:00:32Z</time>
</trkpt>
<trkpt lat="53.3496550" lon="18.4284608">
<ele>96</ele>
<time>2015-05-19T13:00:34Z</time>
</trkpt>
<trkpt lat="53.3497049" lon="18.4286091">
<ele>96</ele>
<time>2015-05-19T13:00:36Z</time>
</trkpt>
<trkpt lat="53.349763" lon="18.4287551">
<ele>96</ele>
<time>2015-05-19T13:00:38Z</time>
</trkpt>
<trkpt lat="53.3498238" lon="18.4288915">
<ele>98</ele>
<time>2015-05-19T13:00:40Z</time>
</trkpt>
<trkpt lat="53.3498895" lon="18.4289879">
<ele>99</ele>
<time>2015-05-19T13:00:42Z</time>
</trkpt>
<trkpt lat="53.3499479" lon="18.4290796">
<ele>99</ele>
<time>2015-05-19T13:00:44Z</time>
</trkpt>
<trkpt lat="53.3499715" lon="18.4291782">
<ele>100</ele>
<time>2015-05-19T13:00:46Z</time>
</trkpt>
<trkpt lat="53.3499963" lon="18.4292794">
<ele>102</ele>
<time>2015-05-19T13:00:48Z</time>
</trkpt>
<trkpt lat="53.3500281" lon="18.4293787">
<ele>103</ele>
<time>2015-05-19T13:00:50Z</time>
</trkpt>
<trkpt lat="53.3500603" lon="18.4294606">
<ele>104</ele>
<time>2015-05-19T13:00:52Z</time>
</trkpt>
<trkpt lat="53.3501013" lon="18.4294545">
<ele>104</ele>
<time>2015-05-19T13:00:54Z</time>
</trkpt>
<trkpt lat="53.3501442" lon="18.4294040">
<ele>107</ele>
<time>2015-05-19T13:00:56Z</time>
</trkpt>
<trkpt lat="53.3501950" lon="18.4293424">
<ele>106</ele>
<time>2015-05-19T13:00:58Z</time>
</trkpt>
<trkpt lat="53.3502640" lon="18.4292694">
<ele>105</ele>
<time>2015-05-19T13:01:00Z</time>
</trkpt>
<trkpt lat="53.3503340" lon="18.4292002">
<ele>104</ele>
<time>2015-05-19T13:01:02Z</time>
</trkpt>
<trkpt lat="53.3503993" lon="18.4291404">
<ele>104</ele>
<time>2015-05-19T13:01:04Z</time>
</trkpt>
<trkpt lat="53.3504643" lon="18.4290791">
<ele>106</ele>
<time>2015-05-19T13:01:06Z</time>
</trkpt>
<trkpt lat="53.3506035" lon="18.4289370">
<ele>107</ele>
<time>2015-05-19T13:01:10Z</time>
</trkpt>
<trkpt lat="53.3506469" lon="18.4289044">
<ele>107</ele>
<time>2015-05-19T13:01:12Z</time>
</trkpt>
<trkpt lat="53.3506754" lon="18.4289120">
<ele>107</ele>
<time>2015-05-19T13:01:14Z</time>
</trkpt>
<trkpt lat="53.3506980" lon="18.4289447">
<ele>107</ele>
<time>2015-05-19T13:01:16Z</time>
</trkpt>
<trkpt lat="53.3507353" lon="18.4289881">
<ele>108</ele>
<time>2015-05-19T13:01:18Z</time>
</trkpt>
<trkpt lat="53.3507925" lon="18.4290766">
<ele>109</ele>
<time>2015-05-19T13:01:20Z</time>
</trkpt>
<trkpt lat="53.3508309" lon="18.4291929">
<ele>108</ele>
<time>2015-05-19T13:01:22Z</time>
</trkpt>
<trkpt lat="53.3508384" lon="18.4293720">
<ele>106</ele>
<time>2015-05-19T13:01:24Z</time>
</trkpt>
<trkpt lat="53.3508412" lon="18.4295124">
<ele>104</ele>
<time>2015-05-19T13:01:26Z</time>
</trkpt>
<trkpt lat="53.3508366" lon="18.4296709">
<ele>104</ele>
<time>2015-05-19T13:01:28Z</time>
</trkpt>
<trkpt lat="53.3508344" lon="18.4298546">
<ele>104</ele>
<time>2015-05-19T13:01:30Z</time>
</trkpt>
<trkpt lat="53.3508074" lon="18.4300233">
<ele>104</ele>
<time>2015-05-19T13:01:32Z</time>
</trkpt>
<trkpt lat="53.3507705" lon="18.4301574">
<ele>105</ele>
<time>2015-05-19T13:01:34Z</time>
</trkpt>
<trkpt lat="53.3507694" lon="18.4303416">
<ele>105</ele>
<time>2015-05-19T13:01:36Z</time>
</trkpt>
<trkpt lat="53.3507580" lon="18.4305534">
<ele>104</ele>
<time>2015-05-19T13:01:38Z</time>
</trkpt>
<trkpt lat="53.3507360" lon="18.4307610">
<ele>104</ele>
<time>2015-05-19T13:01:40Z</time>
</trkpt>
<trkpt lat="53.3506990" lon="18.4309632">
<ele>105</ele>
<time>2015-05-19T13:01:42Z</time>
</trkpt>
<trkpt lat="53.3506521" lon="18.4313506">
<ele>107</ele>
<time>2015-05-19T13:01:46Z</time>
</trkpt>
<trkpt lat="53.3506643" lon="18.431575">
<ele>107</ele>
<time>2015-05-19T13:01:48Z</time>
</trkpt>
<trkpt lat="53.3506236" lon="18.4317743">
<ele>106</ele>
<time>2015-05-19T13:01:50Z</time>
</trkpt>
<trkpt lat="53.3505903" lon="18.431989">
<ele>106</ele>
<time>2015-05-19T13:01:52Z</time>
</trkpt>
<trkpt lat="53.3506245" lon="18.4321940">
<ele>108</ele>
<time>2015-05-19T13:01:54Z</time>
</trkpt>
<trkpt lat="53.3505977" lon="18.4323941">
<ele>106</ele>
<time>2015-05-19T13:01:56Z</time>
</trkpt>
<trkpt lat="53.3506164" lon="18.4325934">
<ele>107</ele>
<time>2015-05-19T13:01:58Z</time>
</trkpt>
<trkpt lat="53.3505933" lon="18.4327716">
<ele>110</ele>
<time>2015-05-19T13:02:00Z</time>
</trkpt>
<trkpt lat="53.3505624" lon="18.4329583">
<ele>110</ele>
<time>2015-05-19T13:02:02Z</time>
</trkpt>
<trkpt lat="53.3505549" lon="18.4331585">
<ele>110</ele>
<time>2015-05-19T13:02:04Z</time>
</trkpt>
<trkpt lat="53.3505109" lon="18.4333646">
<ele>109</ele>
<time>2015-05-19T13:02:06Z</time>
</trkpt>
<trkpt lat="53.3504575" lon="18.4335571">
<ele>105</ele>
<time>2015-05-19T13:02:08Z</time>
</trkpt>
<trkpt lat="53.3504031" lon="18.4337732">
<ele>105</ele>
<time>2015-05-19T13:02:10Z</time>
</trkpt>
<trkpt lat="53.3503177" lon="18.4339261">
<ele>102</ele>
<time>2015-05-19T13:02:12Z</time>
</trkpt>
<trkpt lat="53.3502512" lon="18.4340875">
<ele>100</ele>
<time>2015-05-19T13:02:14Z</time>
</trkpt>
<trkpt lat="53.3501772" lon="18.4344548">
<ele>98</ele>
<time>2015-05-19T13:02:18Z</time>
</trkpt>
<trkpt lat="53.3501499" lon="18.4346251">
<ele>98</ele>
<time>2015-05-19T13:02:20Z</time>
</trkpt>
<trkpt lat="53.3501142" lon="18.4347845">
<ele>98</ele>
<time>2015-05-19T13:02:22Z</time>
</trkpt>
<trkpt lat="53.3500709" lon="18.4349630">
<ele>99</ele>
<time>2015-05-19T13:02:24Z</time>
</trkpt>
<trkpt lat="53.3500525" lon="18.4351197">
<ele>100</ele>
<time>2015-05-19T13:02:26Z</time>
</trkpt>
<trkpt lat="53.3499966" lon="18.4352813">
<ele>100</ele>
<time>2015-05-19T13:02:28Z</time>
</trkpt>
<trkpt lat="53.3499471" lon="18.4354867">
<ele>102</ele>
<time>2015-05-19T13:02:30Z</time>
</trkpt>
<trkpt lat="53.3498766" lon="18.4356857">
<ele>102</ele>
<time>2015-05-19T13:02:32Z</time>
</trkpt>
<trkpt lat="53.3498232" lon="18.4359072">
<ele>101</ele>
<time>2015-05-19T13:02:34Z</time>
</trkpt>
<trkpt lat="53.3497685" lon="18.4360918">
<ele>100</ele>
<time>2015-05-19T13:02:36Z</time>
</trkpt>
<trkpt lat="53.3497253" lon="18.4362773">
<ele>100</ele>
<time>2015-05-19T13:02:38Z</time>
</trkpt>
<trkpt lat="53.3496829" lon="18.4363865">
<ele>100</ele>
<time>2015-05-19T13:02:40Z</time>
</trkpt>
<trkpt lat="53.3496442" lon="18.4364933">
<ele>98</ele>
<time>2015-05-19T13:02:42Z</time>
</trkpt>
<trkpt lat="53.3496516" lon="18.4365089">
<ele>97</ele>
<time>2015-05-19T13:02:44Z</time>
</trkpt>
<trkpt lat="53.3496407" lon="18.4365328">
<ele>98</ele>
<time>2015-05-19T13:02:46Z</time>
</trkpt>
<trkpt lat="53.3496375" lon="18.4365464">
<ele>99</ele>
<time>2015-05-19T13:02:48Z</time>
</trkpt>
<trkpt lat="53.3496147" lon="18.4366153">
<ele>99</ele>
<time>2015-05-19T13:02:50Z</time>
</trkpt>
<trkpt lat="53.3495934" lon="18.4366871">
<ele>97</ele>
<time>2015-05-19T13:02:52Z</time>
</trkpt>
<trkpt lat="53.3495556" lon="18.4368191">
<ele>97</ele>
<time>2015-05-19T13:02:54Z</time>
</trkpt>
<trkpt lat="53.3495144" lon="18.4370113">
<ele>96</ele>
<time>2015-05-19T13:02:56Z</time>
</trkpt>
<trkpt lat="53.3494811" lon="18.4371876">
<ele>98</ele>
<time>2015-05-19T13:02:58Z</time>
</trkpt>
<trkpt lat="53.3494256" lon="18.4373897">
<ele>100</ele>
<time>2015-05-19T13:03:00Z</time>
</trkpt>
<trkpt lat="53.3493720" lon="18.4376237">
<ele>100</ele>
<time>2015-05-19T13:03:02Z</time>
</trkpt>
<trkpt lat="53.3493133" lon="18.4378342">
<ele>99</ele>
<time>2015-05-19T13:03:04Z</time>
</trkpt>
<trkpt lat="53.3492438" lon="18.4380438">
<ele>98</ele>
<time>2015-05-19T13:03:06Z</time>
</trkpt>
<trkpt lat="53.3491276" lon="18.4384643">
<ele>95</ele>
<time>2015-05-19T13:03:10Z</time>
</trkpt>
<trkpt lat="53.3490784" lon="18.4386357">
<ele>96</ele>
<time>2015-05-19T13:03:12Z</time>
</trkpt>
<trkpt lat="53.3490115" lon="18.4388346">
<ele>96</ele>
<time>2015-05-19T13:03:14Z</time>
</trkpt>
<trkpt lat="53.3489523" lon="18.4390112">
<ele>95</ele>
<time>2015-05-19T13:03:16Z</time>
</trkpt>
<trkpt lat="53.3489124" lon="18.4392053">
<ele>95</ele>
<time>2015-05-19T13:03:18Z</time>
</trkpt>
<trkpt lat="53.3488866" lon="18.4393773">
<ele>97</ele>
<time>2015-05-19T13:03:20Z</time>
</trkpt>
<trkpt lat="53.3488496" lon="18.4395581">
<ele>97</ele>
<time>2015-05-19T13:03:22Z</time>
</trkpt>
<trkpt lat="53.3488638" lon="18.4397406">
<ele>98</ele>
<time>2015-05-19T13:03:24Z</time>
</trkpt>
<trkpt lat="53.3488420" lon="18.4398915">
<ele>96</ele>
<time>2015-05-19T13:03:26Z</time>
</trkpt>
<trkpt lat="53.3487822" lon="18.4400200">
<ele>97</ele>
<time>2015-05-19T13:03:28Z</time>
</trkpt>
<trkpt lat="53.3487372" lon="18.4401584">
<ele>97</ele>
<time>2015-05-19T13:03:30Z</time>
</trkpt>
<trkpt lat="53.3486924" lon="18.4402874">
<ele>98</ele>
<time>2015-05-19T13:03:32Z</time>
</trkpt>
<trkpt lat="53.3486506" lon="18.4404007">
<ele>99</ele>
<time>2015-05-19T13:03:34Z</time>
</trkpt>
<trkpt lat="53.3486227" lon="18.4405058">
<ele>99</ele>
<time>2015-05-19T13:03:36Z</time>
</trkpt>
<trkpt lat="53.3486086" lon="18.4406041">
<ele>99</ele>
<time>2015-05-19T13:03:38Z</time>
</trkpt>
<trkpt lat="53.3485791" lon="18.4407123">
<ele>100</ele>
<time>2015-05-19T13:03:40Z</time>
</trkpt>
<trkpt lat="53.3485420" lon="18.4408541">
<ele>101</ele>
<time>2015-05-19T13:03:42Z</time>
</trkpt>
<trkpt lat="53.3485063" lon="18.4409945">
<ele>102</ele>
<time>2015-05-19T13:03:44Z</time>
</trkpt>
<trkpt lat="53.3484685" lon="18.4411234">
<ele>100</ele>
<time>2015-05-19T13:03:46Z</time>
</trkpt>
<trkpt lat="53.3484146" lon="18.4412359">
<ele>99</ele>
<time>2015-05-19T13:03:48Z</time>
</trkpt>
<trkpt lat="53.3483832" lon="18.4413586">
<ele>102</ele>
<time>2015-05-19T13:03:50Z</time>
</trkpt>
<trkpt lat="53.3483435" lon="18.4414926">
<ele>102</ele>
<time>2015-05-19T13:03:52Z</time>
</trkpt>
<trkpt lat="53.3482950" lon="18.4416325">
<ele>103</ele>
<time>2015-05-19T13:03:54Z</time>
</trkpt>
<trkpt lat="53.3482455" lon="18.4417886">
<ele>102</ele>
<time>2015-05-19T13:03:56Z</time>
</trkpt>
<trkpt lat="53.3481946" lon="18.4419345">
<ele>103</ele>
<time>2015-05-19T13:03:58Z</time>
</trkpt>
<trkpt lat="53.3481454" lon="18.4420635">
<ele>103</ele>
<time>2015-05-19T13:04:00Z</time>
</trkpt>
<trkpt lat="53.3481272" lon="18.4421601">
<ele>102</ele>
<time>2015-05-19T13:04:02Z</time>
</trkpt>
<trkpt lat="53.3481231" lon="18.4422543">
<ele>103</ele>
<time>2015-05-19T13:04:04Z</time>
</trkpt>
<trkpt lat="53.3480806" lon="18.4423263">
<ele>104</ele>
<time>2015-05-19T13:04:06Z</time>
</trkpt>
<trkpt lat="53.3480705" lon="18.4424415">
<ele>104</ele>
<time>2015-05-19T13:04:08Z</time>
</trkpt>
<trkpt lat="53.3480824" lon="18.4425411">
<ele>103</ele>
<time>2015-05-19T13:04:10Z</time>
</trkpt>
<trkpt lat="53.3481153" lon="18.4426160">
<ele>101</ele>
<time>2015-05-19T13:04:12Z</time>
</trkpt>
<trkpt lat="53.3481416" lon="18.4427055">
<ele>101</ele>
<time>2015-05-19T13:04:14Z</time>
</trkpt>
<trkpt lat="53.3481389" lon="18.4427891">
<ele>101</ele>
<time>2015-05-19T13:04:16Z</time>
</trkpt>
<trkpt lat="53.3481316" lon="18.4428028">
<ele>101</ele>
<time>2015-05-19T13:04:18Z</time>
</trkpt>
<trkpt lat="53.3481354" lon="18.4428338">
<ele>102</ele>
<time>2015-05-19T13:04:20Z</time>
</trkpt>
<trkpt lat="53.3481385" lon="18.4429233">
<ele>101</ele>
<time>2015-05-19T13:04:22Z</time>
</trkpt>
<trkpt lat="53.3481021" lon="18.4430563">
<ele>101</ele>
<time>2015-05-19T13:04:24Z</time>
</trkpt>
<trkpt lat="53.3480278" lon="18.4431791">
<ele>101</ele>
<time>2015-05-19T13:04:26Z</time>
</trkpt>
<trkpt lat="53.3480009" lon="18.4432595">
<ele>101</ele>
<time>2015-05-19T13:04:28Z</time>
</trkpt>
<trkpt lat="53.3479934" lon="18.4433572">
<ele>101</ele>
<time>2015-05-19T13:04:30Z</time>
</trkpt>
<trkpt lat="53.3479691" lon="18.4434611">
<ele>101</ele>
<time>2015-05-19T13:04:32Z</time>
</trkpt>
<trkpt lat="53.3479096" lon="18.4435633">
<ele>102</ele>
<time>2015-05-19T13:04:34Z</time>
</trkpt>
<trkpt lat="53.3478445" lon="18.4436775">
<ele>101</ele>
<time>2015-05-19T13:04:36Z</time>
</trkpt>
<trkpt lat="53.3477853" lon="18.4437810">
<ele>101</ele>
<time>2015-05-19T13:04:38Z</time>
</trkpt>
<trkpt lat="53.3477762" lon="18.4438756">
<ele>101</ele>
<time>2015-05-19T13:04:40Z</time>
</trkpt>
<trkpt lat="53.3478155" lon="18.4439692">
<ele>101</ele>
<time>2015-05-19T13:04:42Z</time>
</trkpt>
<trkpt lat="53.3478410" lon="18.4440764">
<ele>100</ele>
<time>2015-05-19T13:04:44Z</time>
</trkpt>
<trkpt lat="53.3478125" lon="18.4442066">
<ele>100</ele>
<time>2015-05-19T13:04:46Z</time>
</trkpt>
<trkpt lat="53.3477568" lon="18.4442928">
<ele>99</ele>
<time>2015-05-19T13:04:48Z</time>
</trkpt>
<trkpt lat="53.3477271" lon="18.4443163">
<ele>99</ele>
<time>2015-05-19T13:04:50Z</time>
</trkpt>
<trkpt lat="53.3477087" lon="18.4443478">
<ele>99</ele>
<time>2015-05-19T13:04:52Z</time>
</trkpt>
<trkpt lat="53.3476664" lon="18.4444194">
<ele>98</ele>
<time>2015-05-19T13:04:54Z</time>
</trkpt>
<trkpt lat="53.3475922" lon="18.4445208">
<ele>96</ele>
<time>2015-05-19T13:04:56Z</time>
</trkpt>
<trkpt lat="53.3475021" lon="18.4446558">
<ele>96</ele>
<time>2015-05-19T13:04:58Z</time>
</trkpt>
<trkpt lat="53.3474299" lon="18.4447834">
<ele>97</ele>
<time>2015-05-19T13:05:00Z</time>
</trkpt>
<trkpt lat="53.3473717" lon="18.4449354">
<ele>98</ele>
<time>2015-05-19T13:05:02Z</time>
</trkpt>
<trkpt lat="53.3473210" lon="18.4450301">
<ele>98</ele>
<time>2015-05-19T13:05:04Z</time>
</trkpt>
<trkpt lat="53.3472739" lon="18.4451698">
<ele>96</ele>
<time>2015-05-19T13:05:06Z</time>
</trkpt>
<trkpt lat="53.3472572" lon="18.4453139">
<ele>98</ele>
<time>2015-05-19T13:05:08Z</time>
</trkpt>
<trkpt lat="53.3472917" lon="18.4454392">
<ele>98</ele>
<time>2015-05-19T13:05:10Z</time>
</trkpt>
<trkpt lat="53.3473651" lon="18.4455096">
<ele>97</ele>
<time>2015-05-19T13:05:12Z</time>
</trkpt>
<trkpt lat="53.3474497" lon="18.4455617">
<ele>98</ele>
<time>2015-05-19T13:05:14Z</time>
</trkpt>
<trkpt lat="53.3475295" lon="18.4455945">
<ele>98</ele>
<time>2015-05-19T13:05:16Z</time>
</trkpt>
<trkpt lat="53.3476098" lon="18.4456185">
<ele>99</ele>
<time>2015-05-19T13:05:18Z</time>
</trkpt>
<trkpt lat="53.3476867" lon="18.4456414">
<ele>99</ele>
<time>2015-05-19T13:05:20Z</time>
</trkpt>
<trkpt lat="53.3477631" lon="18.4456630">
<ele>99</ele>
<time>2015-05-19T13:05:22Z</time>
</trkpt>
<trkpt lat="53.3478399" lon="18.4456787">
<ele>99</ele>
<time>2015-05-19T13:05:24Z</time>
</trkpt>
<trkpt lat="53.3479152" lon="18.4456562">
<ele>100</ele>
<time>2015-05-19T13:05:26Z</time>
</trkpt>
<trkpt lat="53.3479842" lon="18.4455967">
<ele>100</ele>
<time>2015-05-19T13:05:28Z</time>
</trkpt>
<trkpt lat="53.3480542" lon="18.4455369">
<ele>101</ele>
<time>2015-05-19T13:05:30Z</time>
</trkpt>
<trkpt lat="53.3481294" lon="18.4455131">
<ele>101</ele>
<time>2015-05-19T13:05:32Z</time>
</trkpt>
<trkpt lat="53.3482031" lon="18.4455054">
<ele>101</ele>
<time>2015-05-19T13:05:34Z</time>
</trkpt>
<trkpt lat="53.3482578" lon="18.4455232">
<ele>100</ele>
<time>2015-05-19T13:05:36Z</time>
</trkpt>
<trkpt lat="53.3482812" lon="18.4455832">
<ele>100</ele>
<time>2015-05-19T13:05:38Z</time>
</trkpt>
<trkpt lat="53.3482739" lon="18.4456639">
<ele>101</ele>
<time>2015-05-19T13:05:40Z</time>
</trkpt>
<trkpt lat="53.3482558" lon="18.4457515">
<ele>101</ele>
<time>2015-05-19T13:05:42Z</time>
</trkpt>
<trkpt lat="53.3482472" lon="18.4458480">
<ele>100</ele>
<time>2015-05-19T13:05:44Z</time>
</trkpt>
<trkpt lat="53.3482513" lon="18.4459525">
<ele>101</ele>
<time>2015-05-19T13:05:46Z</time>
</trkpt>
<trkpt lat="53.3482423" lon="18.4460508">
<ele>100</ele>
<time>2015-05-19T13:05:48Z</time>
</trkpt>
<trkpt lat="53.3482471" lon="18.4461559">
<ele>100</ele>
<time>2015-05-19T13:05:50Z</time>
</trkpt>
<trkpt lat="53.3482669" lon="18.4462257">
<ele>101</ele>
<time>2015-05-19T13:05:52Z</time>
</trkpt>
<trkpt lat="53.3482941" lon="18.4462688">
<ele>101</ele>
<time>2015-05-19T13:05:54Z</time>
</trkpt>
<trkpt lat="53.3483137" lon="18.4462863">
<ele>102</ele>
<time>2015-05-19T13:05:56Z</time>
</trkpt>
<trkpt lat="53.3483120" lon="18.4462781">
<ele>102</ele>
<time>2015-05-19T13:05:58Z</time>
</trkpt>
<trkpt lat="53.3483012" lon="18.4462727">
<ele>102</ele>
<time>2015-05-19T13:06:00Z</time>
</trkpt>
<trkpt lat="53.3483079" lon="18.4462742">
<ele>106</ele>
<time>2015-05-19T13:06:02Z</time>
</trkpt>
<trkpt lat="53.3483209" lon="18.4462671">
<ele>106</ele>
<time>2015-05-19T13:06:04Z</time>
</trkpt>
<trkpt lat="53.3483359" lon="18.4462523">
<ele>106</ele>
<time>2015-05-19T13:06:07Z</time>
</trkpt>
<trkpt lat="53.3483393" lon="18.4462660">
<ele>106</ele>
<time>2015-05-19T13:06:10Z</time>
</trkpt>
<trkpt lat="53.3483416" lon="18.4462769">
<ele>106</ele>
<time>2015-05-19T13:06:12Z</time>
</trkpt>
<trkpt lat="53.3483564" lon="18.4462757">
<ele>106</ele>
<time>2015-05-19T13:06:14Z</time>
</trkpt>
<trkpt lat="53.3483902" lon="18.4462698">
<ele>106</ele>
<time>2015-05-19T13:06:16Z</time>
</trkpt>
<trkpt lat="53.3484175" lon="18.4462258">
<ele>107</ele>
<time>2015-05-19T13:06:18Z</time>
</trkpt>
<trkpt lat="53.3484415" lon="18.4461859">
<ele>107</ele>
<time>2015-05-19T13:06:20Z</time>
</trkpt>
<trkpt lat="53.3484637" lon="18.4461634">
<ele>107</ele>
<time>2015-05-19T13:06:22Z</time>
</trkpt>
<trkpt lat="53.3484981" lon="18.4461397">
<ele>107</ele>
<time>2015-05-19T13:06:24Z</time>
</trkpt>
<trkpt lat="53.3485069" lon="18.4461051">
<ele>107</ele>
<time>2015-05-19T13:06:26Z</time>
</trkpt>
<trkpt lat="53.3491579" lon="18.4461837">
<ele>96</ele>
<time>2015-05-19T13:07:27Z</time>
</trkpt>
<trkpt lat="53.3490435" lon="18.4461655">
<ele>95</ele>
<time>2015-05-19T13:07:30Z</time>
</trkpt>
<trkpt lat="53.3489762" lon="18.4461371">
<ele>98</ele>
<time>2015-05-19T13:07:32Z</time>
</trkpt>
<trkpt lat="" lon="">
<ele></ele>
<time>2015-05-19TZ</time>
</trkpt>
</trkseg>
</trk>
<wpt lat="" lon="">
	<name></name>
	<desc></desc>
	<cmt></cmt>
	<photoid></photoid>
	<type></type>
</wpt>
</gpx>
